<?xml version="1.0" encoding="UTF-8" standalone="no" ?>
<gpx xmlns="http://www.topografix.com/GPX/1/1" xmlns:xsi="http://www.w3.org/2001/XMLSchema-instance" xsi:schemaLocation="http://www.topografix.com/GPX/1/1 http://www.topografix.com/GPX/1/1/gpx.xsd" version="1.1" creator="VisuGPX - https://www.visugpx.com">
  <metadata>
    <name>20220519_reco_avy_32km</name>
  </metadata>
  <trk>
    <name><![CDATA[20220519_reco_avy_32km]]></name>
    <extensions>
      <line xmlns="http://www.topografix.com/GPX/gpx_style/0/2">
        <color>00ff00</color>
        <width>4</width>
          <extensions>
            <sens>1</sens>
          </extensions>
      </line>
    </extensions>
    <trkseg>
      <trkpt lat="43.64969" lon="3.78999">
        <ele>57.4</ele>
        <time>2022-05-19T07:08:33Z</time>
      </trkpt>
      <trkpt lat="43.65012" lon="3.78975">
        <ele>57.9</ele>
        <time>2022-05-19T07:08:43Z</time>
      </trkpt>
      <trkpt lat="43.65048" lon="3.78946">
        <ele>58.2</ele>
        <time>2022-05-19T07:08:53Z</time>
      </trkpt>
      <trkpt lat="43.65075" lon="3.78937">
        <ele>57.1</ele>
        <time>2022-05-19T07:09:03Z</time>
      </trkpt>
      <trkpt lat="43.65099" lon="3.78897">
        <ele>58.1</ele>
        <time>2022-05-19T07:09:13Z</time>
      </trkpt>
      <trkpt lat="43.65131" lon="3.78871">
        <ele>58.6</ele>
        <time>2022-05-19T07:09:23Z</time>
      </trkpt>
      <trkpt lat="43.65146" lon="3.78844">
        <ele>59.9</ele>
        <time>2022-05-19T07:09:33Z</time>
      </trkpt>
      <trkpt lat="43.65155" lon="3.78813">
        <ele>61.9</ele>
        <time>2022-05-19T07:09:43Z</time>
      </trkpt>
      <trkpt lat="43.65188" lon="3.7879">
        <ele>62.3</ele>
        <time>2022-05-19T07:09:53Z</time>
      </trkpt>
      <trkpt lat="43.65213" lon="3.78764">
        <ele>61.3</ele>
        <time>2022-05-19T07:10:03Z</time>
      </trkpt>
      <trkpt lat="43.65234" lon="3.78735">
        <ele>63.3</ele>
        <time>2022-05-19T07:10:13Z</time>
      </trkpt>
      <trkpt lat="43.65265" lon="3.78721">
        <ele>64.1</ele>
        <time>2022-05-19T07:10:23Z</time>
      </trkpt>
      <trkpt lat="43.65298" lon="3.78706">
        <ele>64.6</ele>
        <time>2022-05-19T07:10:33Z</time>
      </trkpt>
      <trkpt lat="43.6533" lon="3.78681">
        <ele>65.1</ele>
        <time>2022-05-19T07:10:43Z</time>
      </trkpt>
      <trkpt lat="43.65366" lon="3.78653">
        <ele>63.4</ele>
        <time>2022-05-19T07:10:53Z</time>
      </trkpt>
      <trkpt lat="43.65427" lon="3.78628">
        <ele>60.6</ele>
        <time>2022-05-19T07:11:03Z</time>
      </trkpt>
      <trkpt lat="43.65414" lon="3.78668">
        <ele>61.9</ele>
        <time>2022-05-19T07:11:13Z</time>
      </trkpt>
      <trkpt lat="43.65398" lon="3.78727">
        <ele>62.3</ele>
        <time>2022-05-19T07:11:23Z</time>
      </trkpt>
      <trkpt lat="43.65363" lon="3.78777">
        <ele>60.2</ele>
        <time>2022-05-19T07:11:33Z</time>
      </trkpt>
      <trkpt lat="43.65354" lon="3.78838">
        <ele>57.7</ele>
        <time>2022-05-19T07:11:43Z</time>
      </trkpt>
      <trkpt lat="43.65389" lon="3.78877">
        <ele>57.9</ele>
        <time>2022-05-19T07:11:53Z</time>
      </trkpt>
      <trkpt lat="43.65431" lon="3.78904">
        <ele>58.2</ele>
        <time>2022-05-19T07:12:03Z</time>
      </trkpt>
      <trkpt lat="43.65469" lon="3.78916">
        <ele>59</ele>
        <time>2022-05-19T07:12:13Z</time>
      </trkpt>
      <trkpt lat="43.65506" lon="3.78931">
        <ele>58.5</ele>
        <time>2022-05-19T07:12:23Z</time>
      </trkpt>
      <trkpt lat="43.65554" lon="3.7892">
        <ele>58.7</ele>
        <time>2022-05-19T07:12:33Z</time>
      </trkpt>
      <trkpt lat="43.65594" lon="3.78905">
        <ele>59.2</ele>
        <time>2022-05-19T07:12:43Z</time>
      </trkpt>
      <trkpt lat="43.65629" lon="3.78874">
        <ele>60</ele>
        <time>2022-05-19T07:12:53Z</time>
      </trkpt>
      <trkpt lat="43.65654" lon="3.78831">
        <ele>61</ele>
        <time>2022-05-19T07:13:03Z</time>
      </trkpt>
      <trkpt lat="43.65675" lon="3.78799">
        <ele>61.5</ele>
        <time>2022-05-19T07:13:13Z</time>
      </trkpt>
      <trkpt lat="43.65706" lon="3.78817">
        <ele>62.4</ele>
        <time>2022-05-19T07:13:23Z</time>
      </trkpt>
      <trkpt lat="43.65731" lon="3.78803">
        <ele>64.3</ele>
        <time>2022-05-19T07:13:33Z</time>
      </trkpt>
      <trkpt lat="43.65749" lon="3.78758">
        <ele>64.9</ele>
        <time>2022-05-19T07:13:43Z</time>
      </trkpt>
      <trkpt lat="43.65767" lon="3.78717">
        <ele>65.9</ele>
        <time>2022-05-19T07:13:53Z</time>
      </trkpt>
      <trkpt lat="43.65786" lon="3.78675">
        <ele>67.3</ele>
        <time>2022-05-19T07:14:03Z</time>
      </trkpt>
      <trkpt lat="43.65813" lon="3.78648">
        <ele>69</ele>
        <time>2022-05-19T07:14:13Z</time>
      </trkpt>
      <trkpt lat="43.65839" lon="3.78621">
        <ele>69.2</ele>
        <time>2022-05-19T07:14:23Z</time>
      </trkpt>
      <trkpt lat="43.65867" lon="3.78617">
        <ele>70.8</ele>
        <time>2022-05-19T07:14:33Z</time>
      </trkpt>
      <trkpt lat="43.65889" lon="3.78635">
        <ele>71.9</ele>
        <time>2022-05-19T07:14:43Z</time>
      </trkpt>
      <trkpt lat="43.65915" lon="3.78655">
        <ele>73.1</ele>
        <time>2022-05-19T07:14:53Z</time>
      </trkpt>
      <trkpt lat="43.65934" lon="3.7863">
        <ele>72.9</ele>
        <time>2022-05-19T07:15:03Z</time>
      </trkpt>
      <trkpt lat="43.65953" lon="3.78606">
        <ele>72.9</ele>
        <time>2022-05-19T07:15:13Z</time>
      </trkpt>
      <trkpt lat="43.65989" lon="3.78624">
        <ele>72.6</ele>
        <time>2022-05-19T07:15:23Z</time>
      </trkpt>
      <trkpt lat="43.66027" lon="3.78667">
        <ele>71</ele>
        <time>2022-05-19T07:15:33Z</time>
      </trkpt>
      <trkpt lat="43.66064" lon="3.78677">
        <ele>70.4</ele>
        <time>2022-05-19T07:15:43Z</time>
      </trkpt>
      <trkpt lat="43.66108" lon="3.78669">
        <ele>71</ele>
        <time>2022-05-19T07:15:53Z</time>
      </trkpt>
      <trkpt lat="43.66189" lon="3.7864">
        <ele>74.1</ele>
        <time>2022-05-19T07:21:23Z</time>
      </trkpt>
      <trkpt lat="43.66216" lon="3.7861">
        <ele>77.9</ele>
        <time>2022-05-19T07:21:43Z</time>
      </trkpt>
      <trkpt lat="43.66258" lon="3.78632">
        <ele>76.2</ele>
        <time>2022-05-19T07:21:53Z</time>
      </trkpt>
      <trkpt lat="43.66299" lon="3.78653">
        <ele>75.5</ele>
        <time>2022-05-19T07:22:03Z</time>
      </trkpt>
      <trkpt lat="43.66332" lon="3.78669">
        <ele>73.8</ele>
        <time>2022-05-19T07:22:13Z</time>
      </trkpt>
      <trkpt lat="43.66365" lon="3.78717">
        <ele>70.6</ele>
        <time>2022-05-19T07:22:23Z</time>
      </trkpt>
      <trkpt lat="43.66412" lon="3.78716">
        <ele>69.3</ele>
        <time>2022-05-19T07:22:33Z</time>
      </trkpt>
      <trkpt lat="43.66436" lon="3.78749">
        <ele>66.6</ele>
        <time>2022-05-19T07:22:43Z</time>
      </trkpt>
      <trkpt lat="43.66449" lon="3.78768">
        <ele>64.1</ele>
        <time>2022-05-19T07:22:53Z</time>
      </trkpt>
      <trkpt lat="43.66467" lon="3.78771">
        <ele>64.4</ele>
        <time>2022-05-19T07:23:03Z</time>
      </trkpt>
      <trkpt lat="43.66489" lon="3.78776">
        <ele>64.9</ele>
        <time>2022-05-19T07:23:23Z</time>
      </trkpt>
      <trkpt lat="43.66515" lon="3.78781">
        <ele>65</ele>
        <time>2022-05-19T07:23:43Z</time>
      </trkpt>
      <trkpt lat="43.66547" lon="3.78785">
        <ele>65</ele>
        <time>2022-05-19T07:23:53Z</time>
      </trkpt>
      <trkpt lat="43.66578" lon="3.78783">
        <ele>65</ele>
        <time>2022-05-19T07:24:03Z</time>
      </trkpt>
      <trkpt lat="43.66607" lon="3.78785">
        <ele>65.2</ele>
        <time>2022-05-19T07:24:13Z</time>
      </trkpt>
      <trkpt lat="43.66631" lon="3.78777">
        <ele>66.4</ele>
        <time>2022-05-19T07:24:23Z</time>
      </trkpt>
      <trkpt lat="43.66655" lon="3.78752">
        <ele>65.9</ele>
        <time>2022-05-19T07:24:33Z</time>
      </trkpt>
      <trkpt lat="43.66684" lon="3.78731">
        <ele>66.5</ele>
        <time>2022-05-19T07:24:43Z</time>
      </trkpt>
      <trkpt lat="43.66708" lon="3.78723">
        <ele>65.6</ele>
        <time>2022-05-19T07:24:53Z</time>
      </trkpt>
      <trkpt lat="43.6672" lon="3.78718">
        <ele>65.4</ele>
        <time>2022-05-19T07:25:13Z</time>
      </trkpt>
      <trkpt lat="43.66744" lon="3.78729">
        <ele>66.7</ele>
        <time>2022-05-19T07:26:33Z</time>
      </trkpt>
      <trkpt lat="43.66764" lon="3.78743">
        <ele>67.6</ele>
        <time>2022-05-19T07:26:53Z</time>
      </trkpt>
      <trkpt lat="43.6678" lon="3.78767">
        <ele>67.5</ele>
        <time>2022-05-19T07:27:03Z</time>
      </trkpt>
      <trkpt lat="43.66781" lon="3.78796">
        <ele>67.4</ele>
        <time>2022-05-19T07:27:13Z</time>
      </trkpt>
      <trkpt lat="43.66769" lon="3.78815">
        <ele>67.3</ele>
        <time>2022-05-19T07:27:23Z</time>
      </trkpt>
      <trkpt lat="43.66779" lon="3.78833">
        <ele>67</ele>
        <time>2022-05-19T07:27:33Z</time>
      </trkpt>
      <trkpt lat="43.6679" lon="3.78859">
        <ele>69.2</ele>
        <time>2022-05-19T07:27:43Z</time>
      </trkpt>
      <trkpt lat="43.66797" lon="3.78892">
        <ele>72.8</ele>
        <time>2022-05-19T07:27:53Z</time>
      </trkpt>
      <trkpt lat="43.66808" lon="3.78914">
        <ele>74.5</ele>
        <time>2022-05-19T07:28:03Z</time>
      </trkpt>
      <trkpt lat="43.66816" lon="3.78929">
        <ele>75.6</ele>
        <time>2022-05-19T07:28:13Z</time>
      </trkpt>
      <trkpt lat="43.66824" lon="3.78936">
        <ele>76.8</ele>
        <time>2022-05-19T07:28:23Z</time>
      </trkpt>
      <trkpt lat="43.66837" lon="3.7895">
        <ele>77.8</ele>
        <time>2022-05-19T07:28:33Z</time>
      </trkpt>
      <trkpt lat="43.66853" lon="3.78958">
        <ele>79</ele>
        <time>2022-05-19T07:28:43Z</time>
      </trkpt>
      <trkpt lat="43.6687" lon="3.78954">
        <ele>80.4</ele>
        <time>2022-05-19T07:28:53Z</time>
      </trkpt>
      <trkpt lat="43.66895" lon="3.78948">
        <ele>80.5</ele>
        <time>2022-05-19T07:29:03Z</time>
      </trkpt>
      <trkpt lat="43.6692" lon="3.78944">
        <ele>78.9</ele>
        <time>2022-05-19T07:29:13Z</time>
      </trkpt>
      <trkpt lat="43.66934" lon="3.78971">
        <ele>80.5</ele>
        <time>2022-05-19T07:29:53Z</time>
      </trkpt>
      <trkpt lat="43.66943" lon="3.78993">
        <ele>82.4</ele>
        <time>2022-05-19T07:30:13Z</time>
      </trkpt>
      <trkpt lat="43.66953" lon="3.79015">
        <ele>84.2</ele>
        <time>2022-05-19T07:30:23Z</time>
      </trkpt>
      <trkpt lat="43.66965" lon="3.79039">
        <ele>85.8</ele>
        <time>2022-05-19T07:30:33Z</time>
      </trkpt>
      <trkpt lat="43.66978" lon="3.79063">
        <ele>87.4</ele>
        <time>2022-05-19T07:30:43Z</time>
      </trkpt>
      <trkpt lat="43.66998" lon="3.79059">
        <ele>88.9</ele>
        <time>2022-05-19T07:30:53Z</time>
      </trkpt>
      <trkpt lat="43.6701" lon="3.79031">
        <ele>89.8</ele>
        <time>2022-05-19T07:31:03Z</time>
      </trkpt>
      <trkpt lat="43.67027" lon="3.79014">
        <ele>90.9</ele>
        <time>2022-05-19T07:31:13Z</time>
      </trkpt>
      <trkpt lat="43.67045" lon="3.79">
        <ele>92.2</ele>
        <time>2022-05-19T07:31:23Z</time>
      </trkpt>
      <trkpt lat="43.67065" lon="3.78988">
        <ele>93.9</ele>
        <time>2022-05-19T07:31:33Z</time>
      </trkpt>
      <trkpt lat="43.67084" lon="3.78994">
        <ele>95.4</ele>
        <time>2022-05-19T07:31:43Z</time>
      </trkpt>
      <trkpt lat="43.67098" lon="3.7901">
        <ele>97.1</ele>
        <time>2022-05-19T07:31:53Z</time>
      </trkpt>
      <trkpt lat="43.67109" lon="3.79024">
        <ele>98.6</ele>
        <time>2022-05-19T07:32:03Z</time>
      </trkpt>
      <trkpt lat="43.67119" lon="3.79036">
        <ele>100.1</ele>
        <time>2022-05-19T07:32:13Z</time>
      </trkpt>
      <trkpt lat="43.67127" lon="3.79047">
        <ele>102.3</ele>
        <time>2022-05-19T07:32:23Z</time>
      </trkpt>
      <trkpt lat="43.67134" lon="3.7906">
        <ele>104.9</ele>
        <time>2022-05-19T07:32:33Z</time>
      </trkpt>
      <trkpt lat="43.67141" lon="3.79071">
        <ele>106.8</ele>
        <time>2022-05-19T07:32:43Z</time>
      </trkpt>
      <trkpt lat="43.67147" lon="3.79083">
        <ele>108.3</ele>
        <time>2022-05-19T07:32:53Z</time>
      </trkpt>
      <trkpt lat="43.67153" lon="3.79097">
        <ele>110</ele>
        <time>2022-05-19T07:33:03Z</time>
      </trkpt>
      <trkpt lat="43.67168" lon="3.79082">
        <ele>109.1</ele>
        <time>2022-05-19T07:33:13Z</time>
      </trkpt>
      <trkpt lat="43.67192" lon="3.79027">
        <ele>103.9</ele>
        <time>2022-05-19T07:33:23Z</time>
      </trkpt>
      <trkpt lat="43.6723" lon="3.7902">
        <ele>106.2</ele>
        <time>2022-05-19T07:33:33Z</time>
      </trkpt>
      <trkpt lat="43.67262" lon="3.7902">
        <ele>108.2</ele>
        <time>2022-05-19T07:33:43Z</time>
      </trkpt>
      <trkpt lat="43.67296" lon="3.79003">
        <ele>107.2</ele>
        <time>2022-05-19T07:33:53Z</time>
      </trkpt>
      <trkpt lat="43.67336" lon="3.78971">
        <ele>101.6</ele>
        <time>2022-05-19T07:34:03Z</time>
      </trkpt>
      <trkpt lat="43.6737" lon="3.78967">
        <ele>99.3</ele>
        <time>2022-05-19T07:34:13Z</time>
      </trkpt>
      <trkpt lat="43.67398" lon="3.78924">
        <ele>88.6</ele>
        <time>2022-05-19T07:34:23Z</time>
      </trkpt>
      <trkpt lat="43.67412" lon="3.78825">
        <ele>76</ele>
        <time>2022-05-19T07:34:33Z</time>
      </trkpt>
      <trkpt lat="43.67441" lon="3.78808">
        <ele>76</ele>
        <time>2022-05-19T07:34:43Z</time>
      </trkpt>
      <trkpt lat="43.67468" lon="3.78812">
        <ele>77.5</ele>
        <time>2022-05-19T07:34:53Z</time>
      </trkpt>
      <trkpt lat="43.67492" lon="3.78805">
        <ele>78.1</ele>
        <time>2022-05-19T07:35:03Z</time>
      </trkpt>
      <trkpt lat="43.67513" lon="3.78796">
        <ele>79.1</ele>
        <time>2022-05-19T07:35:13Z</time>
      </trkpt>
      <trkpt lat="43.67524" lon="3.78788">
        <ele>79.4</ele>
        <time>2022-05-19T07:37:23Z</time>
      </trkpt>
      <trkpt lat="43.67546" lon="3.78759">
        <ele>81.4</ele>
        <time>2022-05-19T07:37:43Z</time>
      </trkpt>
      <trkpt lat="43.67545" lon="3.78734">
        <ele>83</ele>
        <time>2022-05-19T07:37:53Z</time>
      </trkpt>
      <trkpt lat="43.67537" lon="3.78699">
        <ele>83.9</ele>
        <time>2022-05-19T07:39:03Z</time>
      </trkpt>
      <trkpt lat="43.67524" lon="3.78663">
        <ele>83.9</ele>
        <time>2022-05-19T07:39:23Z</time>
      </trkpt>
      <trkpt lat="43.67537" lon="3.78653">
        <ele>84.2</ele>
        <time>2022-05-19T07:39:33Z</time>
      </trkpt>
      <trkpt lat="43.67578" lon="3.78653">
        <ele>85.3</ele>
        <time>2022-05-19T07:40:43Z</time>
      </trkpt>
      <trkpt lat="43.67616" lon="3.78654">
        <ele>85.5</ele>
        <time>2022-05-19T07:41:03Z</time>
      </trkpt>
      <trkpt lat="43.67654" lon="3.78649">
        <ele>85.9</ele>
        <time>2022-05-19T07:41:13Z</time>
      </trkpt>
      <trkpt lat="43.67693" lon="3.78638">
        <ele>86.1</ele>
        <time>2022-05-19T07:41:23Z</time>
      </trkpt>
      <trkpt lat="43.67734" lon="3.78621">
        <ele>86.4</ele>
        <time>2022-05-19T07:41:33Z</time>
      </trkpt>
      <trkpt lat="43.67777" lon="3.78607">
        <ele>86</ele>
        <time>2022-05-19T07:41:43Z</time>
      </trkpt>
      <trkpt lat="43.67811" lon="3.78583">
        <ele>87.4</ele>
        <time>2022-05-19T07:41:53Z</time>
      </trkpt>
      <trkpt lat="43.67844" lon="3.78561">
        <ele>88.8</ele>
        <time>2022-05-19T07:42:03Z</time>
      </trkpt>
      <trkpt lat="43.6788" lon="3.78545">
        <ele>89.9</ele>
        <time>2022-05-19T07:42:13Z</time>
      </trkpt>
      <trkpt lat="43.67917" lon="3.78526">
        <ele>90</ele>
        <time>2022-05-19T07:42:23Z</time>
      </trkpt>
      <trkpt lat="43.67955" lon="3.7851">
        <ele>91.2</ele>
        <time>2022-05-19T07:42:33Z</time>
      </trkpt>
      <trkpt lat="43.67991" lon="3.78494">
        <ele>92</ele>
        <time>2022-05-19T07:42:43Z</time>
      </trkpt>
      <trkpt lat="43.68026" lon="3.78478">
        <ele>92.9</ele>
        <time>2022-05-19T07:42:53Z</time>
      </trkpt>
      <trkpt lat="43.68062" lon="3.78463">
        <ele>94.1</ele>
        <time>2022-05-19T07:43:03Z</time>
      </trkpt>
      <trkpt lat="43.68098" lon="3.78447">
        <ele>93.4</ele>
        <time>2022-05-19T07:43:13Z</time>
      </trkpt>
      <trkpt lat="43.68133" lon="3.78425">
        <ele>94.2</ele>
        <time>2022-05-19T07:43:23Z</time>
      </trkpt>
      <trkpt lat="43.68162" lon="3.78419">
        <ele>92.5</ele>
        <time>2022-05-19T07:43:33Z</time>
      </trkpt>
      <trkpt lat="43.68195" lon="3.78406">
        <ele>94.7</ele>
        <time>2022-05-19T07:43:43Z</time>
      </trkpt>
      <trkpt lat="43.68217" lon="3.78385">
        <ele>97</ele>
        <time>2022-05-19T07:43:53Z</time>
      </trkpt>
      <trkpt lat="43.68245" lon="3.78364">
        <ele>98.8</ele>
        <time>2022-05-19T07:44:03Z</time>
      </trkpt>
      <trkpt lat="43.68274" lon="3.78348">
        <ele>100.3</ele>
        <time>2022-05-19T07:44:13Z</time>
      </trkpt>
      <trkpt lat="43.68304" lon="3.7833">
        <ele>101.2</ele>
        <time>2022-05-19T07:44:23Z</time>
      </trkpt>
      <trkpt lat="43.68335" lon="3.78315">
        <ele>102.3</ele>
        <time>2022-05-19T07:44:33Z</time>
      </trkpt>
      <trkpt lat="43.68361" lon="3.78282">
        <ele>102.2</ele>
        <time>2022-05-19T07:44:43Z</time>
      </trkpt>
      <trkpt lat="43.68375" lon="3.78239">
        <ele>103.1</ele>
        <time>2022-05-19T07:44:53Z</time>
      </trkpt>
      <trkpt lat="43.68378" lon="3.78198">
        <ele>104.5</ele>
        <time>2022-05-19T07:45:03Z</time>
      </trkpt>
      <trkpt lat="43.68366" lon="3.78155">
        <ele>103.5</ele>
        <time>2022-05-19T07:45:13Z</time>
      </trkpt>
      <trkpt lat="43.68346" lon="3.78115">
        <ele>104.4</ele>
        <time>2022-05-19T07:45:23Z</time>
      </trkpt>
      <trkpt lat="43.68343" lon="3.78065">
        <ele>104.6</ele>
        <time>2022-05-19T07:45:33Z</time>
      </trkpt>
      <trkpt lat="43.68364" lon="3.78026">
        <ele>104.6</ele>
        <time>2022-05-19T07:45:43Z</time>
      </trkpt>
      <trkpt lat="43.68354" lon="3.78">
        <ele>105</ele>
        <time>2022-05-19T07:45:53Z</time>
      </trkpt>
      <trkpt lat="43.68366" lon="3.77976">
        <ele>105</ele>
        <time>2022-05-19T07:46:13Z</time>
      </trkpt>
      <trkpt lat="43.68385" lon="3.77943">
        <ele>105.5</ele>
        <time>2022-05-19T07:46:33Z</time>
      </trkpt>
      <trkpt lat="43.68404" lon="3.77907">
        <ele>107.3</ele>
        <time>2022-05-19T07:46:43Z</time>
      </trkpt>
      <trkpt lat="43.68421" lon="3.77863">
        <ele>107.4</ele>
        <time>2022-05-19T07:46:53Z</time>
      </trkpt>
      <trkpt lat="43.6844" lon="3.77812">
        <ele>107.5</ele>
        <time>2022-05-19T07:47:03Z</time>
      </trkpt>
      <trkpt lat="43.6846" lon="3.77763">
        <ele>108.1</ele>
        <time>2022-05-19T07:47:13Z</time>
      </trkpt>
      <trkpt lat="43.68471" lon="3.77712">
        <ele>108.4</ele>
        <time>2022-05-19T07:47:23Z</time>
      </trkpt>
      <trkpt lat="43.68473" lon="3.77658">
        <ele>109.3</ele>
        <time>2022-05-19T07:47:33Z</time>
      </trkpt>
      <trkpt lat="43.68473" lon="3.77607">
        <ele>110.3</ele>
        <time>2022-05-19T07:47:43Z</time>
      </trkpt>
      <trkpt lat="43.68468" lon="3.77559">
        <ele>111.4</ele>
        <time>2022-05-19T07:47:53Z</time>
      </trkpt>
      <trkpt lat="43.6845" lon="3.77554">
        <ele>113.7</ele>
        <time>2022-05-19T07:48:03Z</time>
      </trkpt>
      <trkpt lat="43.68436" lon="3.77552">
        <ele>115.7</ele>
        <time>2022-05-19T07:48:13Z</time>
      </trkpt>
      <trkpt lat="43.68424" lon="3.77546">
        <ele>118.5</ele>
        <time>2022-05-19T07:48:23Z</time>
      </trkpt>
      <trkpt lat="43.68412" lon="3.77539">
        <ele>121.4</ele>
        <time>2022-05-19T07:48:33Z</time>
      </trkpt>
      <trkpt lat="43.68401" lon="3.77531">
        <ele>123.8</ele>
        <time>2022-05-19T07:48:43Z</time>
      </trkpt>
      <trkpt lat="43.68391" lon="3.77525">
        <ele>126</ele>
        <time>2022-05-19T07:48:53Z</time>
      </trkpt>
      <trkpt lat="43.6838" lon="3.7752">
        <ele>128.4</ele>
        <time>2022-05-19T07:49:03Z</time>
      </trkpt>
      <trkpt lat="43.68368" lon="3.77518">
        <ele>129.6</ele>
        <time>2022-05-19T07:49:13Z</time>
      </trkpt>
      <trkpt lat="43.68357" lon="3.77514">
        <ele>131.4</ele>
        <time>2022-05-19T07:49:23Z</time>
      </trkpt>
      <trkpt lat="43.68347" lon="3.77507">
        <ele>133.6</ele>
        <time>2022-05-19T07:49:33Z</time>
      </trkpt>
      <trkpt lat="43.68336" lon="3.77502">
        <ele>134.6</ele>
        <time>2022-05-19T07:49:43Z</time>
      </trkpt>
      <trkpt lat="43.68327" lon="3.77494">
        <ele>136.3</ele>
        <time>2022-05-19T07:49:53Z</time>
      </trkpt>
      <trkpt lat="43.68317" lon="3.77484">
        <ele>138</ele>
        <time>2022-05-19T07:50:03Z</time>
      </trkpt>
      <trkpt lat="43.68307" lon="3.77475">
        <ele>138.6</ele>
        <time>2022-05-19T07:50:13Z</time>
      </trkpt>
      <trkpt lat="43.68299" lon="3.77463">
        <ele>141.6</ele>
        <time>2022-05-19T07:50:23Z</time>
      </trkpt>
      <trkpt lat="43.68289" lon="3.77453">
        <ele>142.8</ele>
        <time>2022-05-19T07:50:33Z</time>
      </trkpt>
      <trkpt lat="43.68279" lon="3.77443">
        <ele>142.7</ele>
        <time>2022-05-19T07:50:43Z</time>
      </trkpt>
      <trkpt lat="43.68268" lon="3.77431">
        <ele>144.5</ele>
        <time>2022-05-19T07:50:53Z</time>
      </trkpt>
      <trkpt lat="43.68256" lon="3.77419">
        <ele>146.1</ele>
        <time>2022-05-19T07:51:03Z</time>
      </trkpt>
      <trkpt lat="43.68242" lon="3.77406">
        <ele>147.7</ele>
        <time>2022-05-19T07:51:13Z</time>
      </trkpt>
      <trkpt lat="43.68228" lon="3.77394">
        <ele>148.7</ele>
        <time>2022-05-19T07:51:23Z</time>
      </trkpt>
      <trkpt lat="43.68215" lon="3.77383">
        <ele>150.4</ele>
        <time>2022-05-19T07:51:33Z</time>
      </trkpt>
      <trkpt lat="43.68201" lon="3.77375">
        <ele>152.1</ele>
        <time>2022-05-19T07:51:43Z</time>
      </trkpt>
      <trkpt lat="43.68185" lon="3.7737">
        <ele>153.4</ele>
        <time>2022-05-19T07:51:53Z</time>
      </trkpt>
      <trkpt lat="43.68168" lon="3.77365">
        <ele>154.6</ele>
        <time>2022-05-19T07:52:03Z</time>
      </trkpt>
      <trkpt lat="43.68152" lon="3.7736">
        <ele>157.3</ele>
        <time>2022-05-19T07:52:13Z</time>
      </trkpt>
      <trkpt lat="43.6814" lon="3.77347">
        <ele>159.5</ele>
        <time>2022-05-19T07:52:23Z</time>
      </trkpt>
      <trkpt lat="43.68129" lon="3.77333">
        <ele>161.1</ele>
        <time>2022-05-19T07:52:33Z</time>
      </trkpt>
      <trkpt lat="43.68116" lon="3.77319">
        <ele>161.9</ele>
        <time>2022-05-19T07:52:43Z</time>
      </trkpt>
      <trkpt lat="43.68089" lon="3.77289">
        <ele>158.5</ele>
        <time>2022-05-19T07:52:53Z</time>
      </trkpt>
      <trkpt lat="43.68057" lon="3.77254">
        <ele>152.6</ele>
        <time>2022-05-19T07:53:03Z</time>
      </trkpt>
      <trkpt lat="43.68055" lon="3.77211">
        <ele>153.3</ele>
        <time>2022-05-19T07:53:13Z</time>
      </trkpt>
      <trkpt lat="43.68055" lon="3.77174">
        <ele>154.6</ele>
        <time>2022-05-19T07:53:23Z</time>
      </trkpt>
      <trkpt lat="43.68052" lon="3.77134">
        <ele>155.4</ele>
        <time>2022-05-19T07:53:33Z</time>
      </trkpt>
      <trkpt lat="43.68052" lon="3.77093">
        <ele>156.2</ele>
        <time>2022-05-19T07:53:43Z</time>
      </trkpt>
      <trkpt lat="43.68061" lon="3.77064">
        <ele>158.3</ele>
        <time>2022-05-19T07:53:53Z</time>
      </trkpt>
      <trkpt lat="43.68072" lon="3.77044">
        <ele>159.9</ele>
        <time>2022-05-19T07:54:03Z</time>
      </trkpt>
      <trkpt lat="43.68083" lon="3.77024">
        <ele>161</ele>
        <time>2022-05-19T07:54:13Z</time>
      </trkpt>
      <trkpt lat="43.68096" lon="3.77003">
        <ele>161.9</ele>
        <time>2022-05-19T07:54:23Z</time>
      </trkpt>
      <trkpt lat="43.68109" lon="3.76981">
        <ele>162.8</ele>
        <time>2022-05-19T07:54:33Z</time>
      </trkpt>
      <trkpt lat="43.68124" lon="3.76957">
        <ele>162.2</ele>
        <time>2022-05-19T07:54:43Z</time>
      </trkpt>
      <trkpt lat="43.68143" lon="3.76928">
        <ele>161</ele>
        <time>2022-05-19T07:54:53Z</time>
      </trkpt>
      <trkpt lat="43.68167" lon="3.7689">
        <ele>159.1</ele>
        <time>2022-05-19T07:55:03Z</time>
      </trkpt>
      <trkpt lat="43.68189" lon="3.7684">
        <ele>154.9</ele>
        <time>2022-05-19T07:55:13Z</time>
      </trkpt>
      <trkpt lat="43.68225" lon="3.76823">
        <ele>154.4</ele>
        <time>2022-05-19T07:55:23Z</time>
      </trkpt>
      <trkpt lat="43.68251" lon="3.76809">
        <ele>155.8</ele>
        <time>2022-05-19T07:55:33Z</time>
      </trkpt>
      <trkpt lat="43.68272" lon="3.76801">
        <ele>157</ele>
        <time>2022-05-19T07:55:43Z</time>
      </trkpt>
      <trkpt lat="43.68299" lon="3.768">
        <ele>158</ele>
        <time>2022-05-19T07:55:53Z</time>
      </trkpt>
      <trkpt lat="43.68322" lon="3.76787">
        <ele>159.3</ele>
        <time>2022-05-19T07:56:03Z</time>
      </trkpt>
      <trkpt lat="43.68345" lon="3.76781">
        <ele>160.3</ele>
        <time>2022-05-19T07:56:13Z</time>
      </trkpt>
      <trkpt lat="43.68369" lon="3.76776">
        <ele>161.9</ele>
        <time>2022-05-19T07:56:23Z</time>
      </trkpt>
      <trkpt lat="43.68394" lon="3.7677">
        <ele>164.5</ele>
        <time>2022-05-19T07:56:33Z</time>
      </trkpt>
      <trkpt lat="43.68417" lon="3.76762">
        <ele>166.4</ele>
        <time>2022-05-19T07:56:43Z</time>
      </trkpt>
      <trkpt lat="43.68431" lon="3.76746">
        <ele>166.8</ele>
        <time>2022-05-19T07:56:53Z</time>
      </trkpt>
      <trkpt lat="43.68445" lon="3.76735">
        <ele>168.1</ele>
        <time>2022-05-19T07:57:03Z</time>
      </trkpt>
      <trkpt lat="43.68456" lon="3.76723">
        <ele>170.2</ele>
        <time>2022-05-19T07:57:13Z</time>
      </trkpt>
      <trkpt lat="43.68464" lon="3.76709">
        <ele>171.7</ele>
        <time>2022-05-19T07:57:23Z</time>
      </trkpt>
      <trkpt lat="43.68469" lon="3.76691">
        <ele>173</ele>
        <time>2022-05-19T07:57:33Z</time>
      </trkpt>
      <trkpt lat="43.68474" lon="3.76677">
        <ele>174.4</ele>
        <time>2022-05-19T07:57:43Z</time>
      </trkpt>
      <trkpt lat="43.6848" lon="3.76661">
        <ele>175.8</ele>
        <time>2022-05-19T07:57:53Z</time>
      </trkpt>
      <trkpt lat="43.68492" lon="3.76654">
        <ele>177.2</ele>
        <time>2022-05-19T07:58:03Z</time>
      </trkpt>
      <trkpt lat="43.68504" lon="3.76647">
        <ele>178.7</ele>
        <time>2022-05-19T07:58:13Z</time>
      </trkpt>
      <trkpt lat="43.68517" lon="3.76641">
        <ele>180.1</ele>
        <time>2022-05-19T07:58:23Z</time>
      </trkpt>
      <trkpt lat="43.6853" lon="3.76639">
        <ele>181.3</ele>
        <time>2022-05-19T07:58:33Z</time>
      </trkpt>
      <trkpt lat="43.68543" lon="3.76635">
        <ele>183.3</ele>
        <time>2022-05-19T07:58:43Z</time>
      </trkpt>
      <trkpt lat="43.68554" lon="3.76627">
        <ele>184.8</ele>
        <time>2022-05-19T07:58:53Z</time>
      </trkpt>
      <trkpt lat="43.68567" lon="3.76619">
        <ele>186.1</ele>
        <time>2022-05-19T07:59:03Z</time>
      </trkpt>
      <trkpt lat="43.68578" lon="3.76611">
        <ele>187.4</ele>
        <time>2022-05-19T07:59:13Z</time>
      </trkpt>
      <trkpt lat="43.68588" lon="3.76598">
        <ele>188.6</ele>
        <time>2022-05-19T07:59:23Z</time>
      </trkpt>
      <trkpt lat="43.68592" lon="3.76576">
        <ele>189.7</ele>
        <time>2022-05-19T07:59:33Z</time>
      </trkpt>
      <trkpt lat="43.68595" lon="3.76555">
        <ele>191.3</ele>
        <time>2022-05-19T07:59:43Z</time>
      </trkpt>
      <trkpt lat="43.68609" lon="3.76538">
        <ele>194.2</ele>
        <time>2022-05-19T08:01:03Z</time>
      </trkpt>
      <trkpt lat="43.68617" lon="3.76525">
        <ele>196.7</ele>
        <time>2022-05-19T08:01:23Z</time>
      </trkpt>
      <trkpt lat="43.68623" lon="3.76514">
        <ele>199.8</ele>
        <time>2022-05-19T08:01:33Z</time>
      </trkpt>
      <trkpt lat="43.68628" lon="3.76499">
        <ele>202.7</ele>
        <time>2022-05-19T08:01:43Z</time>
      </trkpt>
      <trkpt lat="43.68631" lon="3.76487">
        <ele>203.4</ele>
        <time>2022-05-19T08:01:53Z</time>
      </trkpt>
      <trkpt lat="43.68633" lon="3.76468">
        <ele>204.2</ele>
        <time>2022-05-19T08:02:03Z</time>
      </trkpt>
      <trkpt lat="43.68636" lon="3.76452">
        <ele>205</ele>
        <time>2022-05-19T08:02:13Z</time>
      </trkpt>
      <trkpt lat="43.68639" lon="3.76437">
        <ele>205.6</ele>
        <time>2022-05-19T08:02:23Z</time>
      </trkpt>
      <trkpt lat="43.68639" lon="3.76419">
        <ele>206.9</ele>
        <time>2022-05-19T08:02:33Z</time>
      </trkpt>
      <trkpt lat="43.68638" lon="3.76402">
        <ele>208.8</ele>
        <time>2022-05-19T08:02:43Z</time>
      </trkpt>
      <trkpt lat="43.68638" lon="3.76387">
        <ele>210.5</ele>
        <time>2022-05-19T08:02:53Z</time>
      </trkpt>
      <trkpt lat="43.68642" lon="3.7637">
        <ele>212.7</ele>
        <time>2022-05-19T08:03:03Z</time>
      </trkpt>
      <trkpt lat="43.68643" lon="3.76352">
        <ele>215.1</ele>
        <time>2022-05-19T08:03:13Z</time>
      </trkpt>
      <trkpt lat="43.68645" lon="3.76335">
        <ele>217.5</ele>
        <time>2022-05-19T08:03:23Z</time>
      </trkpt>
      <trkpt lat="43.68648" lon="3.76318">
        <ele>218.9</ele>
        <time>2022-05-19T08:03:33Z</time>
      </trkpt>
      <trkpt lat="43.68649" lon="3.76302">
        <ele>219.9</ele>
        <time>2022-05-19T08:03:43Z</time>
      </trkpt>
      <trkpt lat="43.68651" lon="3.76284">
        <ele>221.1</ele>
        <time>2022-05-19T08:03:53Z</time>
      </trkpt>
      <trkpt lat="43.68654" lon="3.76267">
        <ele>222.5</ele>
        <time>2022-05-19T08:04:03Z</time>
      </trkpt>
      <trkpt lat="43.68658" lon="3.7625">
        <ele>223.6</ele>
        <time>2022-05-19T08:04:13Z</time>
      </trkpt>
      <trkpt lat="43.6866" lon="3.76232">
        <ele>224.4</ele>
        <time>2022-05-19T08:04:23Z</time>
      </trkpt>
      <trkpt lat="43.6866" lon="3.76216">
        <ele>225.6</ele>
        <time>2022-05-19T08:04:33Z</time>
      </trkpt>
      <trkpt lat="43.68658" lon="3.762">
        <ele>227.6</ele>
        <time>2022-05-19T08:04:43Z</time>
      </trkpt>
      <trkpt lat="43.68652" lon="3.76188">
        <ele>229.6</ele>
        <time>2022-05-19T08:04:53Z</time>
      </trkpt>
      <trkpt lat="43.68646" lon="3.76158">
        <ele>232.1</ele>
        <time>2022-05-19T08:07:03Z</time>
      </trkpt>
      <trkpt lat="43.68638" lon="3.76146">
        <ele>233.1</ele>
        <time>2022-05-19T08:07:23Z</time>
      </trkpt>
      <trkpt lat="43.68633" lon="3.76133">
        <ele>235.7</ele>
        <time>2022-05-19T08:07:33Z</time>
      </trkpt>
      <trkpt lat="43.68632" lon="3.76115">
        <ele>237.6</ele>
        <time>2022-05-19T08:07:43Z</time>
      </trkpt>
      <trkpt lat="43.68635" lon="3.76082">
        <ele>241.1</ele>
        <time>2022-05-19T08:08:13Z</time>
      </trkpt>
      <trkpt lat="43.68638" lon="3.76066">
        <ele>242.1</ele>
        <time>2022-05-19T08:08:33Z</time>
      </trkpt>
      <trkpt lat="43.68639" lon="3.7605">
        <ele>243.6</ele>
        <time>2022-05-19T08:08:43Z</time>
      </trkpt>
      <trkpt lat="43.68641" lon="3.76033">
        <ele>245.9</ele>
        <time>2022-05-19T08:08:53Z</time>
      </trkpt>
      <trkpt lat="43.68642" lon="3.76019">
        <ele>247.9</ele>
        <time>2022-05-19T08:09:03Z</time>
      </trkpt>
      <trkpt lat="43.68644" lon="3.76008">
        <ele>249.7</ele>
        <time>2022-05-19T08:09:13Z</time>
      </trkpt>
      <trkpt lat="43.68646" lon="3.75998">
        <ele>251.3</ele>
        <time>2022-05-19T08:09:23Z</time>
      </trkpt>
      <trkpt lat="43.68647" lon="3.75981">
        <ele>253.5</ele>
        <time>2022-05-19T08:09:33Z</time>
      </trkpt>
      <trkpt lat="43.68648" lon="3.7597">
        <ele>255</ele>
        <time>2022-05-19T08:09:53Z</time>
      </trkpt>
      <trkpt lat="43.68647" lon="3.7596">
        <ele>256.3</ele>
        <time>2022-05-19T08:10:03Z</time>
      </trkpt>
      <trkpt lat="43.68648" lon="3.7595">
        <ele>257.9</ele>
        <time>2022-05-19T08:10:13Z</time>
      </trkpt>
      <trkpt lat="43.68652" lon="3.75941">
        <ele>259.3</ele>
        <time>2022-05-19T08:10:23Z</time>
      </trkpt>
      <trkpt lat="43.68655" lon="3.75929">
        <ele>260.5</ele>
        <time>2022-05-19T08:10:33Z</time>
      </trkpt>
      <trkpt lat="43.68657" lon="3.75911">
        <ele>262.2</ele>
        <time>2022-05-19T08:10:43Z</time>
      </trkpt>
      <trkpt lat="43.68659" lon="3.75901">
        <ele>263.2</ele>
        <time>2022-05-19T08:11:03Z</time>
      </trkpt>
      <trkpt lat="43.68663" lon="3.75889">
        <ele>264.1</ele>
        <time>2022-05-19T08:11:13Z</time>
      </trkpt>
      <trkpt lat="43.68657" lon="3.75878">
        <ele>265.4</ele>
        <time>2022-05-19T08:11:23Z</time>
      </trkpt>
      <trkpt lat="43.68646" lon="3.75867">
        <ele>266.5</ele>
        <time>2022-05-19T08:11:43Z</time>
      </trkpt>
      <trkpt lat="43.68633" lon="3.75854">
        <ele>267.6</ele>
        <time>2022-05-19T08:11:53Z</time>
      </trkpt>
      <trkpt lat="43.6862" lon="3.75839">
        <ele>268.2</ele>
        <time>2022-05-19T08:12:03Z</time>
      </trkpt>
      <trkpt lat="43.68597" lon="3.75842">
        <ele>267.5</ele>
        <time>2022-05-19T08:12:13Z</time>
      </trkpt>
      <trkpt lat="43.68561" lon="3.75852">
        <ele>266.2</ele>
        <time>2022-05-19T08:12:23Z</time>
      </trkpt>
      <trkpt lat="43.68525" lon="3.7588">
        <ele>266.7</ele>
        <time>2022-05-19T08:12:33Z</time>
      </trkpt>
      <trkpt lat="43.68486" lon="3.75863">
        <ele>266.5</ele>
        <time>2022-05-19T08:12:43Z</time>
      </trkpt>
      <trkpt lat="43.68446" lon="3.75828">
        <ele>265.8</ele>
        <time>2022-05-19T08:12:53Z</time>
      </trkpt>
      <trkpt lat="43.68413" lon="3.75795">
        <ele>265.5</ele>
        <time>2022-05-19T08:13:03Z</time>
      </trkpt>
      <trkpt lat="43.68413" lon="3.75736">
        <ele>262.8</ele>
        <time>2022-05-19T08:13:13Z</time>
      </trkpt>
      <trkpt lat="43.6838" lon="3.75686">
        <ele>263.1</ele>
        <time>2022-05-19T08:13:23Z</time>
      </trkpt>
      <trkpt lat="43.68341" lon="3.75665">
        <ele>265.2</ele>
        <time>2022-05-19T08:13:33Z</time>
      </trkpt>
      <trkpt lat="43.68303" lon="3.75643">
        <ele>266.6</ele>
        <time>2022-05-19T08:13:43Z</time>
      </trkpt>
      <trkpt lat="43.68271" lon="3.75627">
        <ele>269.1</ele>
        <time>2022-05-19T08:13:53Z</time>
      </trkpt>
      <trkpt lat="43.68244" lon="3.75612">
        <ele>270.2</ele>
        <time>2022-05-19T08:14:03Z</time>
      </trkpt>
      <trkpt lat="43.68213" lon="3.75592">
        <ele>270.2</ele>
        <time>2022-05-19T08:14:13Z</time>
      </trkpt>
      <trkpt lat="43.68183" lon="3.75572">
        <ele>270.6</ele>
        <time>2022-05-19T08:14:23Z</time>
      </trkpt>
      <trkpt lat="43.68159" lon="3.75557">
        <ele>270.4</ele>
        <time>2022-05-19T08:14:33Z</time>
      </trkpt>
      <trkpt lat="43.68171" lon="3.75562">
        <ele>270.3</ele>
        <time>2022-05-19T08:14:43Z</time>
      </trkpt>
      <trkpt lat="43.68195" lon="3.75558">
        <ele>269.2</ele>
        <time>2022-05-19T08:14:53Z</time>
      </trkpt>
      <trkpt lat="43.68219" lon="3.75543">
        <ele>267.7</ele>
        <time>2022-05-19T08:15:03Z</time>
      </trkpt>
      <trkpt lat="43.68237" lon="3.75526">
        <ele>263.9</ele>
        <time>2022-05-19T08:15:13Z</time>
      </trkpt>
      <trkpt lat="43.6826" lon="3.75533">
        <ele>260.1</ele>
        <time>2022-05-19T08:15:23Z</time>
      </trkpt>
      <trkpt lat="43.68283" lon="3.75548">
        <ele>255.4</ele>
        <time>2022-05-19T08:15:33Z</time>
      </trkpt>
      <trkpt lat="43.6832" lon="3.75557">
        <ele>246.1</ele>
        <time>2022-05-19T08:15:43Z</time>
      </trkpt>
      <trkpt lat="43.68365" lon="3.7555">
        <ele>234.7</ele>
        <time>2022-05-19T08:15:53Z</time>
      </trkpt>
      <trkpt lat="43.68393" lon="3.75518">
        <ele>229.4</ele>
        <time>2022-05-19T08:16:03Z</time>
      </trkpt>
      <trkpt lat="43.68418" lon="3.75477">
        <ele>225.5</ele>
        <time>2022-05-19T08:16:13Z</time>
      </trkpt>
      <trkpt lat="43.68428" lon="3.75424">
        <ele>223.7</ele>
        <time>2022-05-19T08:16:23Z</time>
      </trkpt>
      <trkpt lat="43.68435" lon="3.75364">
        <ele>220.8</ele>
        <time>2022-05-19T08:16:33Z</time>
      </trkpt>
      <trkpt lat="43.68456" lon="3.75324">
        <ele>219.5</ele>
        <time>2022-05-19T08:16:43Z</time>
      </trkpt>
      <trkpt lat="43.68483" lon="3.75291">
        <ele>215.4</ele>
        <time>2022-05-19T08:16:53Z</time>
      </trkpt>
      <trkpt lat="43.68511" lon="3.75259">
        <ele>208.7</ele>
        <time>2022-05-19T08:17:03Z</time>
      </trkpt>
      <trkpt lat="43.68536" lon="3.7524">
        <ele>200.9</ele>
        <time>2022-05-19T08:17:13Z</time>
      </trkpt>
      <trkpt lat="43.68563" lon="3.75226">
        <ele>187.8</ele>
        <time>2022-05-19T08:17:23Z</time>
      </trkpt>
      <trkpt lat="43.68591" lon="3.7519">
        <ele>177.3</ele>
        <time>2022-05-19T08:17:33Z</time>
      </trkpt>
      <trkpt lat="43.68615" lon="3.7513">
        <ele>168.1</ele>
        <time>2022-05-19T08:17:43Z</time>
      </trkpt>
      <trkpt lat="43.68629" lon="3.75041">
        <ele>163.6</ele>
        <time>2022-05-19T08:17:53Z</time>
      </trkpt>
      <trkpt lat="43.68598" lon="3.74955">
        <ele>160.2</ele>
        <time>2022-05-19T08:18:03Z</time>
      </trkpt>
      <trkpt lat="43.68598" lon="3.74884">
        <ele>155.5</ele>
        <time>2022-05-19T08:18:13Z</time>
      </trkpt>
      <trkpt lat="43.68642" lon="3.74845">
        <ele>155.8</ele>
        <time>2022-05-19T08:18:23Z</time>
      </trkpt>
      <trkpt lat="43.68666" lon="3.74811">
        <ele>156.8</ele>
        <time>2022-05-19T08:18:33Z</time>
      </trkpt>
      <trkpt lat="43.68681" lon="3.74781">
        <ele>158.8</ele>
        <time>2022-05-19T08:18:43Z</time>
      </trkpt>
      <trkpt lat="43.68693" lon="3.74754">
        <ele>161.4</ele>
        <time>2022-05-19T08:18:53Z</time>
      </trkpt>
      <trkpt lat="43.68704" lon="3.74727">
        <ele>163.7</ele>
        <time>2022-05-19T08:19:03Z</time>
      </trkpt>
      <trkpt lat="43.68684" lon="3.74704">
        <ele>162.9</ele>
        <time>2022-05-19T08:19:13Z</time>
      </trkpt>
      <trkpt lat="43.68659" lon="3.74697">
        <ele>161.4</ele>
        <time>2022-05-19T08:19:33Z</time>
      </trkpt>
      <trkpt lat="43.68594" lon="3.74673">
        <ele>155.7</ele>
        <time>2022-05-19T08:19:43Z</time>
      </trkpt>
      <trkpt lat="43.68545" lon="3.74668">
        <ele>152.3</ele>
        <time>2022-05-19T08:19:53Z</time>
      </trkpt>
      <trkpt lat="43.68507" lon="3.74587">
        <ele>148.1</ele>
        <time>2022-05-19T08:20:03Z</time>
      </trkpt>
      <trkpt lat="43.68461" lon="3.74472">
        <ele>137.6</ele>
        <time>2022-05-19T08:20:13Z</time>
      </trkpt>
      <trkpt lat="43.68405" lon="3.74385">
        <ele>137.4</ele>
        <time>2022-05-19T08:20:23Z</time>
      </trkpt>
      <trkpt lat="43.68387" lon="3.74317">
        <ele>135.9</ele>
        <time>2022-05-19T08:20:33Z</time>
      </trkpt>
      <trkpt lat="43.68382" lon="3.74222">
        <ele>131.7</ele>
        <time>2022-05-19T08:20:43Z</time>
      </trkpt>
      <trkpt lat="43.68373" lon="3.74147">
        <ele>128.3</ele>
        <time>2022-05-19T08:20:53Z</time>
      </trkpt>
      <trkpt lat="43.6838" lon="3.74078">
        <ele>126.3</ele>
        <time>2022-05-19T08:21:03Z</time>
      </trkpt>
      <trkpt lat="43.68381" lon="3.74041">
        <ele>128.2</ele>
        <time>2022-05-19T08:21:13Z</time>
      </trkpt>
      <trkpt lat="43.68361" lon="3.74011">
        <ele>129</ele>
        <time>2022-05-19T08:21:23Z</time>
      </trkpt>
      <trkpt lat="43.68335" lon="3.73971">
        <ele>129.2</ele>
        <time>2022-05-19T08:21:33Z</time>
      </trkpt>
      <trkpt lat="43.68319" lon="3.73944">
        <ele>129.5</ele>
        <time>2022-05-19T08:21:43Z</time>
      </trkpt>
      <trkpt lat="43.6829" lon="3.73934">
        <ele>127.2</ele>
        <time>2022-05-19T08:21:53Z</time>
      </trkpt>
      <trkpt lat="43.68242" lon="3.73932">
        <ele>123.2</ele>
        <time>2022-05-19T08:22:03Z</time>
      </trkpt>
      <trkpt lat="43.68214" lon="3.73894">
        <ele>122.4</ele>
        <time>2022-05-19T08:22:13Z</time>
      </trkpt>
      <trkpt lat="43.68175" lon="3.73866">
        <ele>121</ele>
        <time>2022-05-19T08:22:23Z</time>
      </trkpt>
      <trkpt lat="43.68142" lon="3.7383">
        <ele>120.1</ele>
        <time>2022-05-19T08:22:33Z</time>
      </trkpt>
      <trkpt lat="43.68139" lon="3.73803">
        <ele>120.2</ele>
        <time>2022-05-19T08:22:43Z</time>
      </trkpt>
      <trkpt lat="43.68159" lon="3.73782">
        <ele>121.2</ele>
        <time>2022-05-19T08:23:03Z</time>
      </trkpt>
      <trkpt lat="43.68172" lon="3.73762">
        <ele>123.2</ele>
        <time>2022-05-19T08:23:13Z</time>
      </trkpt>
      <trkpt lat="43.68177" lon="3.7374">
        <ele>124.6</ele>
        <time>2022-05-19T08:23:23Z</time>
      </trkpt>
      <trkpt lat="43.68176" lon="3.73713">
        <ele>126.4</ele>
        <time>2022-05-19T08:23:33Z</time>
      </trkpt>
      <trkpt lat="43.68175" lon="3.73686">
        <ele>128</ele>
        <time>2022-05-19T08:23:43Z</time>
      </trkpt>
      <trkpt lat="43.68181" lon="3.73661">
        <ele>129.3</ele>
        <time>2022-05-19T08:23:53Z</time>
      </trkpt>
      <trkpt lat="43.68184" lon="3.73636">
        <ele>130.7</ele>
        <time>2022-05-19T08:24:03Z</time>
      </trkpt>
      <trkpt lat="43.68199" lon="3.73615">
        <ele>132.8</ele>
        <time>2022-05-19T08:24:13Z</time>
      </trkpt>
      <trkpt lat="43.68218" lon="3.73617">
        <ele>133.4</ele>
        <time>2022-05-19T08:24:23Z</time>
      </trkpt>
      <trkpt lat="43.68227" lon="3.73614">
        <ele>133.8</ele>
        <time>2022-05-19T08:24:33Z</time>
      </trkpt>
      <trkpt lat="43.68249" lon="3.73605">
        <ele>134.7</ele>
        <time>2022-05-19T08:24:53Z</time>
      </trkpt>
      <trkpt lat="43.68272" lon="3.73597">
        <ele>133.9</ele>
        <time>2022-05-19T08:25:03Z</time>
      </trkpt>
      <trkpt lat="43.68308" lon="3.73584">
        <ele>134</ele>
        <time>2022-05-19T08:25:23Z</time>
      </trkpt>
      <trkpt lat="43.68336" lon="3.73568">
        <ele>136.3</ele>
        <time>2022-05-19T08:25:33Z</time>
      </trkpt>
      <trkpt lat="43.6836" lon="3.73565">
        <ele>138.6</ele>
        <time>2022-05-19T08:25:43Z</time>
      </trkpt>
      <trkpt lat="43.68384" lon="3.73561">
        <ele>139.5</ele>
        <time>2022-05-19T08:25:53Z</time>
      </trkpt>
      <trkpt lat="43.68415" lon="3.73555">
        <ele>140</ele>
        <time>2022-05-19T08:26:03Z</time>
      </trkpt>
      <trkpt lat="43.68444" lon="3.7355">
        <ele>140.2</ele>
        <time>2022-05-19T08:26:13Z</time>
      </trkpt>
      <trkpt lat="43.68473" lon="3.73545">
        <ele>141.4</ele>
        <time>2022-05-19T08:26:23Z</time>
      </trkpt>
      <trkpt lat="43.68498" lon="3.73542">
        <ele>142.9</ele>
        <time>2022-05-19T08:26:33Z</time>
      </trkpt>
      <trkpt lat="43.68522" lon="3.73538">
        <ele>143.5</ele>
        <time>2022-05-19T08:26:43Z</time>
      </trkpt>
      <trkpt lat="43.68549" lon="3.73534">
        <ele>144.5</ele>
        <time>2022-05-19T08:26:53Z</time>
      </trkpt>
      <trkpt lat="43.68576" lon="3.7353">
        <ele>145.7</ele>
        <time>2022-05-19T08:27:03Z</time>
      </trkpt>
      <trkpt lat="43.68602" lon="3.73525">
        <ele>146.7</ele>
        <time>2022-05-19T08:27:13Z</time>
      </trkpt>
      <trkpt lat="43.68627" lon="3.73521">
        <ele>149</ele>
        <time>2022-05-19T08:27:23Z</time>
      </trkpt>
      <trkpt lat="43.68649" lon="3.73519">
        <ele>150.7</ele>
        <time>2022-05-19T08:27:33Z</time>
      </trkpt>
      <trkpt lat="43.68669" lon="3.73525">
        <ele>151.8</ele>
        <time>2022-05-19T08:27:43Z</time>
      </trkpt>
      <trkpt lat="43.68682" lon="3.73551">
        <ele>151.9</ele>
        <time>2022-05-19T08:27:53Z</time>
      </trkpt>
      <trkpt lat="43.68705" lon="3.736">
        <ele>149.8</ele>
        <time>2022-05-19T08:28:03Z</time>
      </trkpt>
      <trkpt lat="43.68725" lon="3.73636">
        <ele>151.2</ele>
        <time>2022-05-19T08:28:13Z</time>
      </trkpt>
      <trkpt lat="43.68749" lon="3.73639">
        <ele>153.9</ele>
        <time>2022-05-19T08:28:23Z</time>
      </trkpt>
      <trkpt lat="43.68766" lon="3.73648">
        <ele>156.3</ele>
        <time>2022-05-19T08:28:33Z</time>
      </trkpt>
      <trkpt lat="43.68776" lon="3.73665">
        <ele>156.9</ele>
        <time>2022-05-19T08:28:43Z</time>
      </trkpt>
      <trkpt lat="43.68787" lon="3.73685">
        <ele>158.2</ele>
        <time>2022-05-19T08:28:53Z</time>
      </trkpt>
      <trkpt lat="43.68798" lon="3.73706">
        <ele>158.5</ele>
        <time>2022-05-19T08:29:03Z</time>
      </trkpt>
      <trkpt lat="43.68802" lon="3.73693">
        <ele>159.7</ele>
        <time>2022-05-19T08:29:13Z</time>
      </trkpt>
      <trkpt lat="43.68802" lon="3.7367">
        <ele>161.2</ele>
        <time>2022-05-19T08:29:23Z</time>
      </trkpt>
      <trkpt lat="43.68802" lon="3.73644">
        <ele>162.2</ele>
        <time>2022-05-19T08:29:33Z</time>
      </trkpt>
      <trkpt lat="43.68808" lon="3.7362">
        <ele>163.4</ele>
        <time>2022-05-19T08:29:43Z</time>
      </trkpt>
      <trkpt lat="43.68816" lon="3.736">
        <ele>165.3</ele>
        <time>2022-05-19T08:29:53Z</time>
      </trkpt>
      <trkpt lat="43.68825" lon="3.73581">
        <ele>167.4</ele>
        <time>2022-05-19T08:30:03Z</time>
      </trkpt>
      <trkpt lat="43.68834" lon="3.73562">
        <ele>168.3</ele>
        <time>2022-05-19T08:30:13Z</time>
      </trkpt>
      <trkpt lat="43.68845" lon="3.73545">
        <ele>170.3</ele>
        <time>2022-05-19T08:30:23Z</time>
      </trkpt>
      <trkpt lat="43.68856" lon="3.73528">
        <ele>172.3</ele>
        <time>2022-05-19T08:30:33Z</time>
      </trkpt>
      <trkpt lat="43.68868" lon="3.73512">
        <ele>174.4</ele>
        <time>2022-05-19T08:30:43Z</time>
      </trkpt>
      <trkpt lat="43.68879" lon="3.73496">
        <ele>176.1</ele>
        <time>2022-05-19T08:30:53Z</time>
      </trkpt>
      <trkpt lat="43.68891" lon="3.73483">
        <ele>177.8</ele>
        <time>2022-05-19T08:31:03Z</time>
      </trkpt>
      <trkpt lat="43.68903" lon="3.73475">
        <ele>179</ele>
        <time>2022-05-19T08:31:13Z</time>
      </trkpt>
      <trkpt lat="43.68903" lon="3.73462">
        <ele>179.4</ele>
        <time>2022-05-19T08:32:13Z</time>
      </trkpt>
      <trkpt lat="43.68895" lon="3.73448">
        <ele>179.8</ele>
        <time>2022-05-19T08:32:33Z</time>
      </trkpt>
      <trkpt lat="43.68879" lon="3.73433">
        <ele>180.3</ele>
        <time>2022-05-19T08:32:43Z</time>
      </trkpt>
      <trkpt lat="43.68875" lon="3.73402">
        <ele>182.6</ele>
        <time>2022-05-19T08:33:03Z</time>
      </trkpt>
      <trkpt lat="43.68869" lon="3.73378">
        <ele>184.2</ele>
        <time>2022-05-19T08:33:13Z</time>
      </trkpt>
      <trkpt lat="43.68861" lon="3.73357">
        <ele>185.6</ele>
        <time>2022-05-19T08:33:23Z</time>
      </trkpt>
      <trkpt lat="43.68856" lon="3.73337">
        <ele>187.9</ele>
        <time>2022-05-19T08:33:33Z</time>
      </trkpt>
      <trkpt lat="43.68852" lon="3.73317">
        <ele>189.6</ele>
        <time>2022-05-19T08:33:43Z</time>
      </trkpt>
      <trkpt lat="43.6884" lon="3.73301">
        <ele>190.7</ele>
        <time>2022-05-19T08:33:53Z</time>
      </trkpt>
      <trkpt lat="43.68815" lon="3.7329">
        <ele>190.1</ele>
        <time>2022-05-19T08:34:03Z</time>
      </trkpt>
      <trkpt lat="43.68796" lon="3.73265">
        <ele>190.7</ele>
        <time>2022-05-19T08:34:13Z</time>
      </trkpt>
      <trkpt lat="43.68793" lon="3.73237">
        <ele>191.2</ele>
        <time>2022-05-19T08:34:23Z</time>
      </trkpt>
      <trkpt lat="43.6881" lon="3.73215">
        <ele>192.2</ele>
        <time>2022-05-19T08:34:33Z</time>
      </trkpt>
      <trkpt lat="43.68827" lon="3.73202">
        <ele>193.2</ele>
        <time>2022-05-19T08:34:43Z</time>
      </trkpt>
      <trkpt lat="43.68842" lon="3.73192">
        <ele>193.9</ele>
        <time>2022-05-19T08:34:53Z</time>
      </trkpt>
      <trkpt lat="43.6886" lon="3.73179">
        <ele>193.2</ele>
        <time>2022-05-19T08:35:53Z</time>
      </trkpt>
      <trkpt lat="43.68879" lon="3.73159">
        <ele>190.8</ele>
        <time>2022-05-19T08:36:13Z</time>
      </trkpt>
      <trkpt lat="43.68898" lon="3.73128">
        <ele>185.2</ele>
        <time>2022-05-19T08:36:23Z</time>
      </trkpt>
      <trkpt lat="43.68905" lon="3.73119">
        <ele>183.1</ele>
        <time>2022-05-19T08:36:33Z</time>
      </trkpt>
      <trkpt lat="43.68924" lon="3.73094">
        <ele>176.6</ele>
        <time>2022-05-19T08:36:43Z</time>
      </trkpt>
      <trkpt lat="43.68935" lon="3.73081">
        <ele>172.1</ele>
        <time>2022-05-19T08:37:13Z</time>
      </trkpt>
      <trkpt lat="43.68946" lon="3.73054">
        <ele>163.3</ele>
        <time>2022-05-19T08:38:03Z</time>
      </trkpt>
      <trkpt lat="43.68955" lon="3.73052">
        <ele>161.2</ele>
        <time>2022-05-19T08:38:23Z</time>
      </trkpt>
      <trkpt lat="43.6896" lon="3.73056">
        <ele>161.3</ele>
        <time>2022-05-19T08:38:33Z</time>
      </trkpt>
      <trkpt lat="43.68975" lon="3.73045">
        <ele>155.3</ele>
        <time>2022-05-19T08:38:53Z</time>
      </trkpt>
      <trkpt lat="43.68985" lon="3.73032">
        <ele>149.4</ele>
        <time>2022-05-19T08:39:33Z</time>
      </trkpt>
      <trkpt lat="43.6899" lon="3.73022">
        <ele>146.1</ele>
        <time>2022-05-19T08:39:53Z</time>
      </trkpt>
      <trkpt lat="43.68971" lon="3.72998">
        <ele>143.6</ele>
        <time>2022-05-19T08:40:23Z</time>
      </trkpt>
      <trkpt lat="43.68949" lon="3.72964">
        <ele>138.5</ele>
        <time>2022-05-19T08:40:43Z</time>
      </trkpt>
      <trkpt lat="43.68926" lon="3.72929">
        <ele>133</ele>
        <time>2022-05-19T08:40:53Z</time>
      </trkpt>
      <trkpt lat="43.68904" lon="3.72903">
        <ele>126.7</ele>
        <time>2022-05-19T08:41:03Z</time>
      </trkpt>
      <trkpt lat="43.68882" lon="3.7288">
        <ele>121.7</ele>
        <time>2022-05-19T08:41:13Z</time>
      </trkpt>
      <trkpt lat="43.68857" lon="3.72863">
        <ele>115</ele>
        <time>2022-05-19T08:41:23Z</time>
      </trkpt>
      <trkpt lat="43.68831" lon="3.72837">
        <ele>111.1</ele>
        <time>2022-05-19T08:44:53Z</time>
      </trkpt>
      <trkpt lat="43.68816" lon="3.72836">
        <ele>111</ele>
        <time>2022-05-19T08:45:13Z</time>
      </trkpt>
      <trkpt lat="43.68799" lon="3.72859">
        <ele>113.2</ele>
        <time>2022-05-19T08:45:23Z</time>
      </trkpt>
      <trkpt lat="43.68787" lon="3.7289">
        <ele>113.2</ele>
        <time>2022-05-19T08:45:33Z</time>
      </trkpt>
      <trkpt lat="43.68775" lon="3.72915">
        <ele>110.7</ele>
        <time>2022-05-19T08:45:43Z</time>
      </trkpt>
      <trkpt lat="43.68754" lon="3.72926">
        <ele>112.6</ele>
        <time>2022-05-19T08:45:53Z</time>
      </trkpt>
      <trkpt lat="43.68728" lon="3.72915">
        <ele>112</ele>
        <time>2022-05-19T08:46:03Z</time>
      </trkpt>
      <trkpt lat="43.68694" lon="3.72907">
        <ele>110.4</ele>
        <time>2022-05-19T08:46:13Z</time>
      </trkpt>
      <trkpt lat="43.6865" lon="3.72913">
        <ele>109.8</ele>
        <time>2022-05-19T08:46:23Z</time>
      </trkpt>
      <trkpt lat="43.68609" lon="3.72931">
        <ele>109.6</ele>
        <time>2022-05-19T08:46:33Z</time>
      </trkpt>
      <trkpt lat="43.6857" lon="3.72941">
        <ele>109.3</ele>
        <time>2022-05-19T08:46:43Z</time>
      </trkpt>
      <trkpt lat="43.6853" lon="3.72941">
        <ele>109.5</ele>
        <time>2022-05-19T08:46:53Z</time>
      </trkpt>
      <trkpt lat="43.68494" lon="3.72932">
        <ele>108.1</ele>
        <time>2022-05-19T08:47:03Z</time>
      </trkpt>
      <trkpt lat="43.68449" lon="3.72922">
        <ele>108.7</ele>
        <time>2022-05-19T08:47:13Z</time>
      </trkpt>
      <trkpt lat="43.68402" lon="3.7292">
        <ele>108.1</ele>
        <time>2022-05-19T08:47:23Z</time>
      </trkpt>
      <trkpt lat="43.68359" lon="3.7295">
        <ele>107.8</ele>
        <time>2022-05-19T08:47:33Z</time>
      </trkpt>
      <trkpt lat="43.68333" lon="3.73009">
        <ele>106.4</ele>
        <time>2022-05-19T08:47:43Z</time>
      </trkpt>
      <trkpt lat="43.68301" lon="3.73069">
        <ele>106.1</ele>
        <time>2022-05-19T08:47:53Z</time>
      </trkpt>
      <trkpt lat="43.68257" lon="3.7308">
        <ele>107</ele>
        <time>2022-05-19T08:48:03Z</time>
      </trkpt>
      <trkpt lat="43.68216" lon="3.73086">
        <ele>107.1</ele>
        <time>2022-05-19T08:48:13Z</time>
      </trkpt>
      <trkpt lat="43.68174" lon="3.7304">
        <ele>103.8</ele>
        <time>2022-05-19T08:48:23Z</time>
      </trkpt>
      <trkpt lat="43.68145" lon="3.72989">
        <ele>105</ele>
        <time>2022-05-19T08:48:33Z</time>
      </trkpt>
      <trkpt lat="43.68107" lon="3.72959">
        <ele>104.7</ele>
        <time>2022-05-19T08:48:43Z</time>
      </trkpt>
      <trkpt lat="43.68058" lon="3.72925">
        <ele>103.9</ele>
        <time>2022-05-19T08:48:53Z</time>
      </trkpt>
      <trkpt lat="43.68004" lon="3.72941">
        <ele>102</ele>
        <time>2022-05-19T08:49:03Z</time>
      </trkpt>
      <trkpt lat="43.67961" lon="3.72944">
        <ele>100.4</ele>
        <time>2022-05-19T08:49:13Z</time>
      </trkpt>
      <trkpt lat="43.67936" lon="3.72913">
        <ele>101.5</ele>
        <time>2022-05-19T08:49:23Z</time>
      </trkpt>
      <trkpt lat="43.679" lon="3.72903">
        <ele>101.1</ele>
        <time>2022-05-19T08:49:33Z</time>
      </trkpt>
      <trkpt lat="43.67859" lon="3.72904">
        <ele>103.2</ele>
        <time>2022-05-19T08:49:43Z</time>
      </trkpt>
      <trkpt lat="43.67813" lon="3.729">
        <ele>102.7</ele>
        <time>2022-05-19T08:49:53Z</time>
      </trkpt>
      <trkpt lat="43.67774" lon="3.72897">
        <ele>102.9</ele>
        <time>2022-05-19T08:50:03Z</time>
      </trkpt>
      <trkpt lat="43.67734" lon="3.72893">
        <ele>102.9</ele>
        <time>2022-05-19T08:50:13Z</time>
      </trkpt>
      <trkpt lat="43.67688" lon="3.72866">
        <ele>102</ele>
        <time>2022-05-19T08:50:23Z</time>
      </trkpt>
      <trkpt lat="43.67638" lon="3.72839">
        <ele>100.5</ele>
        <time>2022-05-19T08:50:33Z</time>
      </trkpt>
      <trkpt lat="43.67591" lon="3.72821">
        <ele>99.8</ele>
        <time>2022-05-19T08:50:43Z</time>
      </trkpt>
      <trkpt lat="43.67534" lon="3.7282">
        <ele>99.2</ele>
        <time>2022-05-19T08:50:53Z</time>
      </trkpt>
      <trkpt lat="43.67477" lon="3.7282">
        <ele>99.1</ele>
        <time>2022-05-19T08:51:03Z</time>
      </trkpt>
      <trkpt lat="43.67422" lon="3.7282">
        <ele>98.5</ele>
        <time>2022-05-19T08:51:13Z</time>
      </trkpt>
      <trkpt lat="43.67374" lon="3.72823">
        <ele>99.4</ele>
        <time>2022-05-19T08:51:23Z</time>
      </trkpt>
      <trkpt lat="43.67326" lon="3.72824">
        <ele>97.8</ele>
        <time>2022-05-19T08:51:33Z</time>
      </trkpt>
      <trkpt lat="43.67333" lon="3.72783">
        <ele>95</ele>
        <time>2022-05-19T08:51:43Z</time>
      </trkpt>
      <trkpt lat="43.67361" lon="3.72752">
        <ele>96.9</ele>
        <time>2022-05-19T08:51:53Z</time>
      </trkpt>
      <trkpt lat="43.67394" lon="3.72724">
        <ele>98.6</ele>
        <time>2022-05-19T08:52:03Z</time>
      </trkpt>
      <trkpt lat="43.67423" lon="3.72691">
        <ele>99.4</ele>
        <time>2022-05-19T08:52:13Z</time>
      </trkpt>
      <trkpt lat="43.67439" lon="3.72659">
        <ele>101.3</ele>
        <time>2022-05-19T08:52:23Z</time>
      </trkpt>
      <trkpt lat="43.67457" lon="3.72636">
        <ele>102.6</ele>
        <time>2022-05-19T08:52:33Z</time>
      </trkpt>
      <trkpt lat="43.67465" lon="3.72603">
        <ele>104.4</ele>
        <time>2022-05-19T08:52:43Z</time>
      </trkpt>
      <trkpt lat="43.67478" lon="3.72569">
        <ele>105.6</ele>
        <time>2022-05-19T08:52:53Z</time>
      </trkpt>
      <trkpt lat="43.67482" lon="3.72533">
        <ele>106.6</ele>
        <time>2022-05-19T08:53:03Z</time>
      </trkpt>
      <trkpt lat="43.67484" lon="3.72511">
        <ele>107.7</ele>
        <time>2022-05-19T08:53:13Z</time>
      </trkpt>
      <trkpt lat="43.67485" lon="3.72481">
        <ele>108.8</ele>
        <time>2022-05-19T08:53:23Z</time>
      </trkpt>
      <trkpt lat="43.67484" lon="3.72451">
        <ele>110.4</ele>
        <time>2022-05-19T08:53:33Z</time>
      </trkpt>
      <trkpt lat="43.67489" lon="3.7242">
        <ele>112.5</ele>
        <time>2022-05-19T08:53:43Z</time>
      </trkpt>
      <trkpt lat="43.67486" lon="3.72387">
        <ele>114.6</ele>
        <time>2022-05-19T08:53:53Z</time>
      </trkpt>
      <trkpt lat="43.675" lon="3.72379">
        <ele>111.4</ele>
        <time>2022-05-19T08:54:13Z</time>
      </trkpt>
      <trkpt lat="43.67529" lon="3.72425">
        <ele>113.1</ele>
        <time>2022-05-19T08:54:33Z</time>
      </trkpt>
      <trkpt lat="43.67528" lon="3.72448">
        <ele>111.8</ele>
        <time>2022-05-19T08:55:03Z</time>
      </trkpt>
      <trkpt lat="43.67543" lon="3.72501">
        <ele>111.7</ele>
        <time>2022-05-19T08:55:23Z</time>
      </trkpt>
      <trkpt lat="43.6757" lon="3.7256">
        <ele>106.4</ele>
        <time>2022-05-19T08:55:33Z</time>
      </trkpt>
      <trkpt lat="43.67584" lon="3.7261">
        <ele>107.1</ele>
        <time>2022-05-19T08:55:43Z</time>
      </trkpt>
      <trkpt lat="43.67606" lon="3.72646">
        <ele>105.5</ele>
        <time>2022-05-19T08:55:53Z</time>
      </trkpt>
      <trkpt lat="43.67641" lon="3.72682">
        <ele>102.8</ele>
        <time>2022-05-19T08:56:03Z</time>
      </trkpt>
      <trkpt lat="43.67663" lon="3.72668">
        <ele>105.6</ele>
        <time>2022-05-19T08:56:13Z</time>
      </trkpt>
      <trkpt lat="43.67671" lon="3.72653">
        <ele>107.7</ele>
        <time>2022-05-19T08:56:23Z</time>
      </trkpt>
      <trkpt lat="43.67678" lon="3.72637">
        <ele>110</ele>
        <time>2022-05-19T08:56:33Z</time>
      </trkpt>
      <trkpt lat="43.67684" lon="3.72623">
        <ele>111.4</ele>
        <time>2022-05-19T08:56:43Z</time>
      </trkpt>
      <trkpt lat="43.6769" lon="3.72609">
        <ele>113</ele>
        <time>2022-05-19T08:56:53Z</time>
      </trkpt>
      <trkpt lat="43.67696" lon="3.72596">
        <ele>115.3</ele>
        <time>2022-05-19T08:57:03Z</time>
      </trkpt>
      <trkpt lat="43.67703" lon="3.72583">
        <ele>117.7</ele>
        <time>2022-05-19T08:57:13Z</time>
      </trkpt>
      <trkpt lat="43.67709" lon="3.72572">
        <ele>120.1</ele>
        <time>2022-05-19T08:57:23Z</time>
      </trkpt>
      <trkpt lat="43.67715" lon="3.72559">
        <ele>122.9</ele>
        <time>2022-05-19T08:57:33Z</time>
      </trkpt>
      <trkpt lat="43.67724" lon="3.72555">
        <ele>124.3</ele>
        <time>2022-05-19T08:57:43Z</time>
      </trkpt>
      <trkpt lat="43.67738" lon="3.72555">
        <ele>124.8</ele>
        <time>2022-05-19T08:57:53Z</time>
      </trkpt>
      <trkpt lat="43.67755" lon="3.72556">
        <ele>125.3</ele>
        <time>2022-05-19T08:58:03Z</time>
      </trkpt>
      <trkpt lat="43.67773" lon="3.72558">
        <ele>126.3</ele>
        <time>2022-05-19T08:58:13Z</time>
      </trkpt>
      <trkpt lat="43.67798" lon="3.72565">
        <ele>125.6</ele>
        <time>2022-05-19T08:58:23Z</time>
      </trkpt>
      <trkpt lat="43.67826" lon="3.72567">
        <ele>127.1</ele>
        <time>2022-05-19T08:58:33Z</time>
      </trkpt>
      <trkpt lat="43.67843" lon="3.72569">
        <ele>128.6</ele>
        <time>2022-05-19T08:58:43Z</time>
      </trkpt>
      <trkpt lat="43.67861" lon="3.72571">
        <ele>130.3</ele>
        <time>2022-05-19T08:58:53Z</time>
      </trkpt>
      <trkpt lat="43.67877" lon="3.72571">
        <ele>131.7</ele>
        <time>2022-05-19T08:59:03Z</time>
      </trkpt>
      <trkpt lat="43.67894" lon="3.7257">
        <ele>133.4</ele>
        <time>2022-05-19T08:59:13Z</time>
      </trkpt>
      <trkpt lat="43.67911" lon="3.72571">
        <ele>134.8</ele>
        <time>2022-05-19T08:59:23Z</time>
      </trkpt>
      <trkpt lat="43.67927" lon="3.72569">
        <ele>136.3</ele>
        <time>2022-05-19T08:59:33Z</time>
      </trkpt>
      <trkpt lat="43.67945" lon="3.72566">
        <ele>137.9</ele>
        <time>2022-05-19T08:59:43Z</time>
      </trkpt>
      <trkpt lat="43.67962" lon="3.72562">
        <ele>139.9</ele>
        <time>2022-05-19T08:59:53Z</time>
      </trkpt>
      <trkpt lat="43.67978" lon="3.7256">
        <ele>141.4</ele>
        <time>2022-05-19T09:00:03Z</time>
      </trkpt>
      <trkpt lat="43.67996" lon="3.72556">
        <ele>142.8</ele>
        <time>2022-05-19T09:00:13Z</time>
      </trkpt>
      <trkpt lat="43.68014" lon="3.72553">
        <ele>143.3</ele>
        <time>2022-05-19T09:00:23Z</time>
      </trkpt>
      <trkpt lat="43.68038" lon="3.72542">
        <ele>143.2</ele>
        <time>2022-05-19T09:00:33Z</time>
      </trkpt>
      <trkpt lat="43.68059" lon="3.72517">
        <ele>143.5</ele>
        <time>2022-05-19T09:00:43Z</time>
      </trkpt>
      <trkpt lat="43.68081" lon="3.72489">
        <ele>143.7</ele>
        <time>2022-05-19T09:00:53Z</time>
      </trkpt>
      <trkpt lat="43.68103" lon="3.72466">
        <ele>144.8</ele>
        <time>2022-05-19T09:01:03Z</time>
      </trkpt>
      <trkpt lat="43.68123" lon="3.72446">
        <ele>145.9</ele>
        <time>2022-05-19T09:01:13Z</time>
      </trkpt>
      <trkpt lat="43.68136" lon="3.72429">
        <ele>147.8</ele>
        <time>2022-05-19T09:01:23Z</time>
      </trkpt>
      <trkpt lat="43.68146" lon="3.72412">
        <ele>149.3</ele>
        <time>2022-05-19T09:01:33Z</time>
      </trkpt>
      <trkpt lat="43.68153" lon="3.72394">
        <ele>151.7</ele>
        <time>2022-05-19T09:01:43Z</time>
      </trkpt>
      <trkpt lat="43.68158" lon="3.72375">
        <ele>153.5</ele>
        <time>2022-05-19T09:01:53Z</time>
      </trkpt>
      <trkpt lat="43.68164" lon="3.72353">
        <ele>154.4</ele>
        <time>2022-05-19T09:02:03Z</time>
      </trkpt>
      <trkpt lat="43.68166" lon="3.72328">
        <ele>155.2</ele>
        <time>2022-05-19T09:02:13Z</time>
      </trkpt>
      <trkpt lat="43.68164" lon="3.72301">
        <ele>155.8</ele>
        <time>2022-05-19T09:02:23Z</time>
      </trkpt>
      <trkpt lat="43.68156" lon="3.72281">
        <ele>157.3</ele>
        <time>2022-05-19T09:02:33Z</time>
      </trkpt>
      <trkpt lat="43.68144" lon="3.72265">
        <ele>158.6</ele>
        <time>2022-05-19T09:02:43Z</time>
      </trkpt>
      <trkpt lat="43.68131" lon="3.72252">
        <ele>160</ele>
        <time>2022-05-19T09:02:53Z</time>
      </trkpt>
      <trkpt lat="43.68115" lon="3.72241">
        <ele>161.2</ele>
        <time>2022-05-19T09:03:03Z</time>
      </trkpt>
      <trkpt lat="43.68099" lon="3.72231">
        <ele>162.2</ele>
        <time>2022-05-19T09:03:13Z</time>
      </trkpt>
      <trkpt lat="43.68083" lon="3.72222">
        <ele>163</ele>
        <time>2022-05-19T09:03:23Z</time>
      </trkpt>
      <trkpt lat="43.68066" lon="3.72213">
        <ele>164.3</ele>
        <time>2022-05-19T09:03:33Z</time>
      </trkpt>
      <trkpt lat="43.68048" lon="3.72202">
        <ele>164.9</ele>
        <time>2022-05-19T09:03:43Z</time>
      </trkpt>
      <trkpt lat="43.68029" lon="3.72188">
        <ele>166.8</ele>
        <time>2022-05-19T09:03:53Z</time>
      </trkpt>
      <trkpt lat="43.68013" lon="3.72174">
        <ele>167.5</ele>
        <time>2022-05-19T09:04:03Z</time>
      </trkpt>
      <trkpt lat="43.67997" lon="3.72154">
        <ele>167.2</ele>
        <time>2022-05-19T09:04:13Z</time>
      </trkpt>
      <trkpt lat="43.68016" lon="3.72116">
        <ele>165.2</ele>
        <time>2022-05-19T09:04:23Z</time>
      </trkpt>
      <trkpt lat="43.68026" lon="3.72089">
        <ele>168.3</ele>
        <time>2022-05-19T09:04:33Z</time>
      </trkpt>
      <trkpt lat="43.68022" lon="3.72064">
        <ele>168.7</ele>
        <time>2022-05-19T09:04:43Z</time>
      </trkpt>
      <trkpt lat="43.67979" lon="3.72034">
        <ele>165.4</ele>
        <time>2022-05-19T09:04:53Z</time>
      </trkpt>
      <trkpt lat="43.67912" lon="3.71984">
        <ele>162.7</ele>
        <time>2022-05-19T09:05:03Z</time>
      </trkpt>
      <trkpt lat="43.67839" lon="3.71945">
        <ele>158.2</ele>
        <time>2022-05-19T09:05:13Z</time>
      </trkpt>
      <trkpt lat="43.67772" lon="3.71883">
        <ele>154.4</ele>
        <time>2022-05-19T09:05:23Z</time>
      </trkpt>
      <trkpt lat="43.67742" lon="3.71819">
        <ele>152.5</ele>
        <time>2022-05-19T09:05:33Z</time>
      </trkpt>
      <trkpt lat="43.67753" lon="3.71799">
        <ele>153.6</ele>
        <time>2022-05-19T09:05:43Z</time>
      </trkpt>
      <trkpt lat="43.67752" lon="3.71778">
        <ele>155</ele>
        <time>2022-05-19T09:05:53Z</time>
      </trkpt>
      <trkpt lat="43.67751" lon="3.71757">
        <ele>157.2</ele>
        <time>2022-05-19T09:06:43Z</time>
      </trkpt>
      <trkpt lat="43.67751" lon="3.71737">
        <ele>158.9</ele>
        <time>2022-05-19T09:07:03Z</time>
      </trkpt>
      <trkpt lat="43.67752" lon="3.71717">
        <ele>160.5</ele>
        <time>2022-05-19T09:07:13Z</time>
      </trkpt>
      <trkpt lat="43.67755" lon="3.71697">
        <ele>162.2</ele>
        <time>2022-05-19T09:07:23Z</time>
      </trkpt>
      <trkpt lat="43.67755" lon="3.7168">
        <ele>163.7</ele>
        <time>2022-05-19T09:07:33Z</time>
      </trkpt>
      <trkpt lat="43.67756" lon="3.71664">
        <ele>165.7</ele>
        <time>2022-05-19T09:07:43Z</time>
      </trkpt>
      <trkpt lat="43.67763" lon="3.71652">
        <ele>168.9</ele>
        <time>2022-05-19T09:07:53Z</time>
      </trkpt>
      <trkpt lat="43.67775" lon="3.71645">
        <ele>168.5</ele>
        <time>2022-05-19T09:08:43Z</time>
      </trkpt>
      <trkpt lat="43.67783" lon="3.71633">
        <ele>173.5</ele>
        <time>2022-05-19T09:09:03Z</time>
      </trkpt>
      <trkpt lat="43.67791" lon="3.7162">
        <ele>178.6</ele>
        <time>2022-05-19T09:09:13Z</time>
      </trkpt>
      <trkpt lat="43.67799" lon="3.71606">
        <ele>180</ele>
        <time>2022-05-19T09:09:23Z</time>
      </trkpt>
      <trkpt lat="43.67807" lon="3.71593">
        <ele>180.1</ele>
        <time>2022-05-19T09:09:33Z</time>
      </trkpt>
      <trkpt lat="43.67815" lon="3.71582">
        <ele>182</ele>
        <time>2022-05-19T09:09:43Z</time>
      </trkpt>
      <trkpt lat="43.67825" lon="3.71572">
        <ele>184.8</ele>
        <time>2022-05-19T09:09:53Z</time>
      </trkpt>
      <trkpt lat="43.67836" lon="3.71567">
        <ele>185.6</ele>
        <time>2022-05-19T09:10:03Z</time>
      </trkpt>
      <trkpt lat="43.67849" lon="3.7156">
        <ele>187.5</ele>
        <time>2022-05-19T09:10:13Z</time>
      </trkpt>
      <trkpt lat="43.67857" lon="3.71547">
        <ele>188.5</ele>
        <time>2022-05-19T09:10:23Z</time>
      </trkpt>
      <trkpt lat="43.67865" lon="3.71532">
        <ele>190.8</ele>
        <time>2022-05-19T09:10:33Z</time>
      </trkpt>
      <trkpt lat="43.67875" lon="3.71519">
        <ele>194.4</ele>
        <time>2022-05-19T09:10:43Z</time>
      </trkpt>
      <trkpt lat="43.67879" lon="3.71505">
        <ele>195.3</ele>
        <time>2022-05-19T09:10:53Z</time>
      </trkpt>
      <trkpt lat="43.67885" lon="3.71491">
        <ele>196.4</ele>
        <time>2022-05-19T09:11:03Z</time>
      </trkpt>
      <trkpt lat="43.67896" lon="3.71478">
        <ele>199.7</ele>
        <time>2022-05-19T09:11:13Z</time>
      </trkpt>
      <trkpt lat="43.67904" lon="3.71464">
        <ele>201.8</ele>
        <time>2022-05-19T09:11:23Z</time>
      </trkpt>
      <trkpt lat="43.67909" lon="3.71448">
        <ele>202.1</ele>
        <time>2022-05-19T09:11:33Z</time>
      </trkpt>
      <trkpt lat="43.67919" lon="3.71435">
        <ele>202.8</ele>
        <time>2022-05-19T09:11:43Z</time>
      </trkpt>
      <trkpt lat="43.67926" lon="3.7142">
        <ele>206.1</ele>
        <time>2022-05-19T09:11:53Z</time>
      </trkpt>
      <trkpt lat="43.67933" lon="3.71406">
        <ele>207.6</ele>
        <time>2022-05-19T09:12:03Z</time>
      </trkpt>
      <trkpt lat="43.6794" lon="3.71392">
        <ele>207.2</ele>
        <time>2022-05-19T09:12:13Z</time>
      </trkpt>
      <trkpt lat="43.67947" lon="3.71375">
        <ele>209.1</ele>
        <time>2022-05-19T09:12:23Z</time>
      </trkpt>
      <trkpt lat="43.67948" lon="3.71357">
        <ele>212.6</ele>
        <time>2022-05-19T09:12:33Z</time>
      </trkpt>
      <trkpt lat="43.67951" lon="3.7134">
        <ele>215.4</ele>
        <time>2022-05-19T09:12:43Z</time>
      </trkpt>
      <trkpt lat="43.67952" lon="3.71323">
        <ele>217.4</ele>
        <time>2022-05-19T09:12:53Z</time>
      </trkpt>
      <trkpt lat="43.67953" lon="3.71306">
        <ele>219.2</ele>
        <time>2022-05-19T09:13:03Z</time>
      </trkpt>
      <trkpt lat="43.67951" lon="3.7129">
        <ele>220.3</ele>
        <time>2022-05-19T09:13:13Z</time>
      </trkpt>
      <trkpt lat="43.67947" lon="3.71274">
        <ele>221</ele>
        <time>2022-05-19T09:13:23Z</time>
      </trkpt>
      <trkpt lat="43.67942" lon="3.7126">
        <ele>222.8</ele>
        <time>2022-05-19T09:13:33Z</time>
      </trkpt>
      <trkpt lat="43.67938" lon="3.71248">
        <ele>225.4</ele>
        <time>2022-05-19T09:13:43Z</time>
      </trkpt>
      <trkpt lat="43.67944" lon="3.71242">
        <ele>224.8</ele>
        <time>2022-05-19T09:13:53Z</time>
      </trkpt>
      <trkpt lat="43.67961" lon="3.71255">
        <ele>227.5</ele>
        <time>2022-05-19T09:14:33Z</time>
      </trkpt>
      <trkpt lat="43.67973" lon="3.71272">
        <ele>227.7</ele>
        <time>2022-05-19T09:14:53Z</time>
      </trkpt>
      <trkpt lat="43.67982" lon="3.71291">
        <ele>229.4</ele>
        <time>2022-05-19T09:15:03Z</time>
      </trkpt>
      <trkpt lat="43.67987" lon="3.71312">
        <ele>229.4</ele>
        <time>2022-05-19T09:15:13Z</time>
      </trkpt>
      <trkpt lat="43.67993" lon="3.71332">
        <ele>230.6</ele>
        <time>2022-05-19T09:15:23Z</time>
      </trkpt>
      <trkpt lat="43.68001" lon="3.71349">
        <ele>231</ele>
        <time>2022-05-19T09:15:33Z</time>
      </trkpt>
      <trkpt lat="43.68014" lon="3.71356">
        <ele>233.9</ele>
        <time>2022-05-19T09:15:43Z</time>
      </trkpt>
      <trkpt lat="43.68025" lon="3.71361">
        <ele>236.1</ele>
        <time>2022-05-19T09:15:53Z</time>
      </trkpt>
      <trkpt lat="43.68037" lon="3.71365">
        <ele>237.9</ele>
        <time>2022-05-19T09:16:03Z</time>
      </trkpt>
      <trkpt lat="43.68048" lon="3.71369">
        <ele>239.1</ele>
        <time>2022-05-19T09:16:13Z</time>
      </trkpt>
      <trkpt lat="43.68059" lon="3.7137">
        <ele>241.1</ele>
        <time>2022-05-19T09:16:23Z</time>
      </trkpt>
      <trkpt lat="43.68069" lon="3.71371">
        <ele>242.9</ele>
        <time>2022-05-19T09:16:33Z</time>
      </trkpt>
      <trkpt lat="43.68081" lon="3.71372">
        <ele>244.8</ele>
        <time>2022-05-19T09:16:43Z</time>
      </trkpt>
      <trkpt lat="43.68093" lon="3.71372">
        <ele>246.1</ele>
        <time>2022-05-19T09:16:53Z</time>
      </trkpt>
      <trkpt lat="43.68105" lon="3.71369">
        <ele>248.4</ele>
        <time>2022-05-19T09:17:03Z</time>
      </trkpt>
      <trkpt lat="43.68115" lon="3.71367">
        <ele>249.8</ele>
        <time>2022-05-19T09:17:13Z</time>
      </trkpt>
      <trkpt lat="43.68124" lon="3.71364">
        <ele>251.3</ele>
        <time>2022-05-19T09:17:23Z</time>
      </trkpt>
      <trkpt lat="43.68135" lon="3.7136">
        <ele>253.3</ele>
        <time>2022-05-19T09:17:33Z</time>
      </trkpt>
      <trkpt lat="43.6815" lon="3.71356">
        <ele>255.1</ele>
        <time>2022-05-19T09:18:13Z</time>
      </trkpt>
      <trkpt lat="43.68162" lon="3.71351">
        <ele>256.9</ele>
        <time>2022-05-19T09:18:33Z</time>
      </trkpt>
      <trkpt lat="43.68173" lon="3.7134">
        <ele>259.1</ele>
        <time>2022-05-19T09:18:43Z</time>
      </trkpt>
      <trkpt lat="43.68182" lon="3.71328">
        <ele>260.8</ele>
        <time>2022-05-19T09:18:53Z</time>
      </trkpt>
      <trkpt lat="43.68192" lon="3.71313">
        <ele>262</ele>
        <time>2022-05-19T09:19:03Z</time>
      </trkpt>
      <trkpt lat="43.68203" lon="3.71299">
        <ele>263.3</ele>
        <time>2022-05-19T09:19:13Z</time>
      </trkpt>
      <trkpt lat="43.68211" lon="3.71284">
        <ele>264.9</ele>
        <time>2022-05-19T09:19:23Z</time>
      </trkpt>
      <trkpt lat="43.6822" lon="3.71268">
        <ele>266.1</ele>
        <time>2022-05-19T09:19:33Z</time>
      </trkpt>
      <trkpt lat="43.68232" lon="3.71254">
        <ele>268.5</ele>
        <time>2022-05-19T09:19:43Z</time>
      </trkpt>
      <trkpt lat="43.68242" lon="3.7124">
        <ele>269.7</ele>
        <time>2022-05-19T09:19:53Z</time>
      </trkpt>
      <trkpt lat="43.68251" lon="3.71223">
        <ele>270.1</ele>
        <time>2022-05-19T09:20:03Z</time>
      </trkpt>
      <trkpt lat="43.68258" lon="3.71206">
        <ele>273.3</ele>
        <time>2022-05-19T09:20:13Z</time>
      </trkpt>
      <trkpt lat="43.68266" lon="3.71191">
        <ele>275.1</ele>
        <time>2022-05-19T09:20:23Z</time>
      </trkpt>
      <trkpt lat="43.68273" lon="3.71175">
        <ele>275.7</ele>
        <time>2022-05-19T09:20:33Z</time>
      </trkpt>
      <trkpt lat="43.68284" lon="3.71156">
        <ele>276.5</ele>
        <time>2022-05-19T09:20:43Z</time>
      </trkpt>
      <trkpt lat="43.6829" lon="3.71134">
        <ele>277.2</ele>
        <time>2022-05-19T09:20:53Z</time>
      </trkpt>
      <trkpt lat="43.68298" lon="3.7111">
        <ele>278</ele>
        <time>2022-05-19T09:21:03Z</time>
      </trkpt>
      <trkpt lat="43.68308" lon="3.71084">
        <ele>279</ele>
        <time>2022-05-19T09:21:13Z</time>
      </trkpt>
      <trkpt lat="43.68319" lon="3.71057">
        <ele>279.5</ele>
        <time>2022-05-19T09:21:23Z</time>
      </trkpt>
      <trkpt lat="43.6833" lon="3.71032">
        <ele>279.1</ele>
        <time>2022-05-19T09:21:33Z</time>
      </trkpt>
      <trkpt lat="43.68326" lon="3.71005">
        <ele>279.5</ele>
        <time>2022-05-19T09:21:43Z</time>
      </trkpt>
      <trkpt lat="43.68307" lon="3.70991">
        <ele>280.9</ele>
        <time>2022-05-19T09:21:53Z</time>
      </trkpt>
      <trkpt lat="43.68292" lon="3.7097">
        <ele>281.5</ele>
        <time>2022-05-19T09:22:03Z</time>
      </trkpt>
      <trkpt lat="43.68274" lon="3.70955">
        <ele>282</ele>
        <time>2022-05-19T09:22:13Z</time>
      </trkpt>
      <trkpt lat="43.68253" lon="3.70944">
        <ele>282</ele>
        <time>2022-05-19T09:22:23Z</time>
      </trkpt>
      <trkpt lat="43.68235" lon="3.70935">
        <ele>282.7</ele>
        <time>2022-05-19T09:22:53Z</time>
      </trkpt>
      <trkpt lat="43.68217" lon="3.7092">
        <ele>283.2</ele>
        <time>2022-05-19T09:23:13Z</time>
      </trkpt>
      <trkpt lat="43.68196" lon="3.70908">
        <ele>284</ele>
        <time>2022-05-19T09:23:23Z</time>
      </trkpt>
      <trkpt lat="43.68176" lon="3.709">
        <ele>284</ele>
        <time>2022-05-19T09:23:33Z</time>
      </trkpt>
      <trkpt lat="43.68153" lon="3.70898">
        <ele>283.8</ele>
        <time>2022-05-19T09:23:43Z</time>
      </trkpt>
      <trkpt lat="43.68127" lon="3.70898">
        <ele>283.7</ele>
        <time>2022-05-19T09:23:53Z</time>
      </trkpt>
      <trkpt lat="43.68098" lon="3.70905">
        <ele>282.9</ele>
        <time>2022-05-19T09:24:03Z</time>
      </trkpt>
      <trkpt lat="43.68071" lon="3.70906">
        <ele>281.9</ele>
        <time>2022-05-19T09:24:13Z</time>
      </trkpt>
      <trkpt lat="43.68039" lon="3.7092">
        <ele>280.3</ele>
        <time>2022-05-19T09:24:23Z</time>
      </trkpt>
      <trkpt lat="43.68005" lon="3.70916">
        <ele>279.2</ele>
        <time>2022-05-19T09:24:33Z</time>
      </trkpt>
      <trkpt lat="43.67976" lon="3.70912">
        <ele>279.3</ele>
        <time>2022-05-19T09:24:43Z</time>
      </trkpt>
      <trkpt lat="43.6796" lon="3.70887">
        <ele>281.5</ele>
        <time>2022-05-19T09:24:53Z</time>
      </trkpt>
      <trkpt lat="43.67943" lon="3.7087">
        <ele>282.8</ele>
        <time>2022-05-19T09:25:03Z</time>
      </trkpt>
      <trkpt lat="43.67931" lon="3.70855">
        <ele>284.1</ele>
        <time>2022-05-19T09:25:13Z</time>
      </trkpt>
      <trkpt lat="43.67921" lon="3.70837">
        <ele>284.8</ele>
        <time>2022-05-19T09:25:23Z</time>
      </trkpt>
      <trkpt lat="43.67915" lon="3.70814">
        <ele>285.8</ele>
        <time>2022-05-19T09:25:33Z</time>
      </trkpt>
      <trkpt lat="43.67902" lon="3.70795">
        <ele>286.3</ele>
        <time>2022-05-19T09:25:43Z</time>
      </trkpt>
      <trkpt lat="43.67883" lon="3.70789">
        <ele>287.2</ele>
        <time>2022-05-19T09:25:53Z</time>
      </trkpt>
      <trkpt lat="43.67863" lon="3.70788">
        <ele>287.9</ele>
        <time>2022-05-19T09:26:03Z</time>
      </trkpt>
      <trkpt lat="43.67844" lon="3.70795">
        <ele>288.6</ele>
        <time>2022-05-19T09:26:13Z</time>
      </trkpt>
      <trkpt lat="43.67828" lon="3.70814">
        <ele>289.2</ele>
        <time>2022-05-19T09:26:23Z</time>
      </trkpt>
      <trkpt lat="43.67809" lon="3.70828">
        <ele>289.9</ele>
        <time>2022-05-19T09:26:33Z</time>
      </trkpt>
      <trkpt lat="43.67785" lon="3.70838">
        <ele>290</ele>
        <time>2022-05-19T09:26:43Z</time>
      </trkpt>
      <trkpt lat="43.67764" lon="3.70857">
        <ele>290</ele>
        <time>2022-05-19T09:26:53Z</time>
      </trkpt>
      <trkpt lat="43.67744" lon="3.70869">
        <ele>290.1</ele>
        <time>2022-05-19T09:27:03Z</time>
      </trkpt>
      <trkpt lat="43.67719" lon="3.70878">
        <ele>290.6</ele>
        <time>2022-05-19T09:27:13Z</time>
      </trkpt>
      <trkpt lat="43.67694" lon="3.70887">
        <ele>290.9</ele>
        <time>2022-05-19T09:27:23Z</time>
      </trkpt>
      <trkpt lat="43.67666" lon="3.70873">
        <ele>290.5</ele>
        <time>2022-05-19T09:27:33Z</time>
      </trkpt>
      <trkpt lat="43.6764" lon="3.70854">
        <ele>290.7</ele>
        <time>2022-05-19T09:27:43Z</time>
      </trkpt>
      <trkpt lat="43.67613" lon="3.7085">
        <ele>291</ele>
        <time>2022-05-19T09:27:53Z</time>
      </trkpt>
      <trkpt lat="43.67593" lon="3.70846">
        <ele>291.9</ele>
        <time>2022-05-19T09:28:03Z</time>
      </trkpt>
      <trkpt lat="43.67566" lon="3.70848">
        <ele>292.8</ele>
        <time>2022-05-19T09:28:13Z</time>
      </trkpt>
      <trkpt lat="43.67547" lon="3.70849">
        <ele>293.2</ele>
        <time>2022-05-19T09:28:23Z</time>
      </trkpt>
      <trkpt lat="43.67524" lon="3.70853">
        <ele>293.7</ele>
        <time>2022-05-19T09:28:43Z</time>
      </trkpt>
      <trkpt lat="43.67501" lon="3.70854">
        <ele>293.7</ele>
        <time>2022-05-19T09:29:03Z</time>
      </trkpt>
      <trkpt lat="43.6748" lon="3.70854">
        <ele>293</ele>
        <time>2022-05-19T09:29:13Z</time>
      </trkpt>
      <trkpt lat="43.67455" lon="3.70859">
        <ele>292.3</ele>
        <time>2022-05-19T09:29:23Z</time>
      </trkpt>
      <trkpt lat="43.67427" lon="3.70859">
        <ele>290.7</ele>
        <time>2022-05-19T09:29:33Z</time>
      </trkpt>
      <trkpt lat="43.67406" lon="3.70863">
        <ele>289.3</ele>
        <time>2022-05-19T09:29:43Z</time>
      </trkpt>
      <trkpt lat="43.67379" lon="3.70857">
        <ele>287.1</ele>
        <time>2022-05-19T09:29:53Z</time>
      </trkpt>
      <trkpt lat="43.67353" lon="3.70861">
        <ele>285.7</ele>
        <time>2022-05-19T09:30:03Z</time>
      </trkpt>
      <trkpt lat="43.67335" lon="3.70875">
        <ele>285.1</ele>
        <time>2022-05-19T09:30:13Z</time>
      </trkpt>
      <trkpt lat="43.67312" lon="3.70885">
        <ele>284.3</ele>
        <time>2022-05-19T09:30:23Z</time>
      </trkpt>
      <trkpt lat="43.67289" lon="3.70888">
        <ele>284</ele>
        <time>2022-05-19T09:30:33Z</time>
      </trkpt>
      <trkpt lat="43.67262" lon="3.70898">
        <ele>283.7</ele>
        <time>2022-05-19T09:30:43Z</time>
      </trkpt>
      <trkpt lat="43.67236" lon="3.70901">
        <ele>283.3</ele>
        <time>2022-05-19T09:30:53Z</time>
      </trkpt>
      <trkpt lat="43.67209" lon="3.70902">
        <ele>282.8</ele>
        <time>2022-05-19T09:31:03Z</time>
      </trkpt>
      <trkpt lat="43.67186" lon="3.7091">
        <ele>282.5</ele>
        <time>2022-05-19T09:31:13Z</time>
      </trkpt>
      <trkpt lat="43.67162" lon="3.70909">
        <ele>283.4</ele>
        <time>2022-05-19T09:31:23Z</time>
      </trkpt>
      <trkpt lat="43.67136" lon="3.70903">
        <ele>283.7</ele>
        <time>2022-05-19T09:31:33Z</time>
      </trkpt>
      <trkpt lat="43.67106" lon="3.70906">
        <ele>281</ele>
        <time>2022-05-19T09:31:43Z</time>
      </trkpt>
      <trkpt lat="43.6707" lon="3.70878">
        <ele>276.1</ele>
        <time>2022-05-19T09:31:53Z</time>
      </trkpt>
      <trkpt lat="43.6705" lon="3.70862">
        <ele>274.8</ele>
        <time>2022-05-19T09:32:03Z</time>
      </trkpt>
      <trkpt lat="43.67019" lon="3.70865">
        <ele>272.8</ele>
        <time>2022-05-19T09:32:13Z</time>
      </trkpt>
      <trkpt lat="43.66993" lon="3.70845">
        <ele>269.3</ele>
        <time>2022-05-19T09:32:33Z</time>
      </trkpt>
      <trkpt lat="43.66969" lon="3.70843">
        <ele>267.2</ele>
        <time>2022-05-19T09:32:43Z</time>
      </trkpt>
      <trkpt lat="43.66951" lon="3.70843">
        <ele>264.8</ele>
        <time>2022-05-19T09:34:13Z</time>
      </trkpt>
      <trkpt lat="43.66942" lon="3.70817">
        <ele>264.8</ele>
        <time>2022-05-19T09:34:53Z</time>
      </trkpt>
      <trkpt lat="43.66938" lon="3.70794">
        <ele>262.7</ele>
        <time>2022-05-19T09:35:13Z</time>
      </trkpt>
      <trkpt lat="43.66921" lon="3.70785">
        <ele>259.2</ele>
        <time>2022-05-19T09:35:23Z</time>
      </trkpt>
      <trkpt lat="43.66896" lon="3.70761">
        <ele>253.1</ele>
        <time>2022-05-19T09:35:33Z</time>
      </trkpt>
      <trkpt lat="43.66872" lon="3.70754">
        <ele>249.9</ele>
        <time>2022-05-19T09:35:43Z</time>
      </trkpt>
      <trkpt lat="43.66848" lon="3.70743">
        <ele>246.9</ele>
        <time>2022-05-19T09:35:53Z</time>
      </trkpt>
      <trkpt lat="43.66818" lon="3.70728">
        <ele>243.7</ele>
        <time>2022-05-19T09:36:03Z</time>
      </trkpt>
      <trkpt lat="43.66785" lon="3.70714">
        <ele>238.1</ele>
        <time>2022-05-19T09:36:13Z</time>
      </trkpt>
      <trkpt lat="43.66778" lon="3.70676">
        <ele>233.4</ele>
        <time>2022-05-19T09:36:23Z</time>
      </trkpt>
      <trkpt lat="43.6679" lon="3.7065">
        <ele>230.8</ele>
        <time>2022-05-19T09:36:43Z</time>
      </trkpt>
      <trkpt lat="43.66795" lon="3.70627">
        <ele>226.6</ele>
        <time>2022-05-19T09:37:03Z</time>
      </trkpt>
      <trkpt lat="43.66763" lon="3.70635">
        <ele>223.6</ele>
        <time>2022-05-19T09:37:13Z</time>
      </trkpt>
      <trkpt lat="43.66732" lon="3.70646">
        <ele>220.1</ele>
        <time>2022-05-19T09:37:23Z</time>
      </trkpt>
      <trkpt lat="43.66705" lon="3.70662">
        <ele>216.6</ele>
        <time>2022-05-19T09:37:33Z</time>
      </trkpt>
      <trkpt lat="43.66683" lon="3.70668">
        <ele>212.9</ele>
        <time>2022-05-19T09:37:43Z</time>
      </trkpt>
      <trkpt lat="43.66667" lon="3.70638">
        <ele>211</ele>
        <time>2022-05-19T09:37:53Z</time>
      </trkpt>
      <trkpt lat="43.66641" lon="3.70613">
        <ele>207.2</ele>
        <time>2022-05-19T09:38:03Z</time>
      </trkpt>
      <trkpt lat="43.66604" lon="3.706">
        <ele>204.8</ele>
        <time>2022-05-19T09:38:13Z</time>
      </trkpt>
      <trkpt lat="43.66576" lon="3.70595">
        <ele>205.7</ele>
        <time>2022-05-19T09:38:23Z</time>
      </trkpt>
      <trkpt lat="43.66551" lon="3.70592">
        <ele>205.7</ele>
        <time>2022-05-19T09:38:33Z</time>
      </trkpt>
      <trkpt lat="43.66527" lon="3.70582">
        <ele>203.8</ele>
        <time>2022-05-19T09:38:43Z</time>
      </trkpt>
      <trkpt lat="43.66497" lon="3.70567">
        <ele>200.7</ele>
        <time>2022-05-19T09:40:53Z</time>
      </trkpt>
      <trkpt lat="43.66481" lon="3.70542">
        <ele>197.7</ele>
        <time>2022-05-19T09:41:13Z</time>
      </trkpt>
      <trkpt lat="43.66465" lon="3.7052">
        <ele>196</ele>
        <time>2022-05-19T09:41:23Z</time>
      </trkpt>
      <trkpt lat="43.6646" lon="3.70496">
        <ele>193.6</ele>
        <time>2022-05-19T09:41:33Z</time>
      </trkpt>
      <trkpt lat="43.66455" lon="3.70462">
        <ele>188.6</ele>
        <time>2022-05-19T09:41:43Z</time>
      </trkpt>
      <trkpt lat="43.66436" lon="3.70439">
        <ele>187.6</ele>
        <time>2022-05-19T09:41:53Z</time>
      </trkpt>
      <trkpt lat="43.6642" lon="3.70419">
        <ele>187</ele>
        <time>2022-05-19T09:42:03Z</time>
      </trkpt>
      <trkpt lat="43.66396" lon="3.70406">
        <ele>186.4</ele>
        <time>2022-05-19T09:42:13Z</time>
      </trkpt>
      <trkpt lat="43.66378" lon="3.70412">
        <ele>187.6</ele>
        <time>2022-05-19T09:42:53Z</time>
      </trkpt>
      <trkpt lat="43.66362" lon="3.70409">
        <ele>187.4</ele>
        <time>2022-05-19T09:43:13Z</time>
      </trkpt>
      <trkpt lat="43.66336" lon="3.70409">
        <ele>185.6</ele>
        <time>2022-05-19T09:43:33Z</time>
      </trkpt>
      <trkpt lat="43.66307" lon="3.70411">
        <ele>183.7</ele>
        <time>2022-05-19T09:43:43Z</time>
      </trkpt>
      <trkpt lat="43.66285" lon="3.70399">
        <ele>181.4</ele>
        <time>2022-05-19T09:43:53Z</time>
      </trkpt>
      <trkpt lat="43.66271" lon="3.70412">
        <ele>180.3</ele>
        <time>2022-05-19T09:44:03Z</time>
      </trkpt>
      <trkpt lat="43.66256" lon="3.70433">
        <ele>178.8</ele>
        <time>2022-05-19T09:44:13Z</time>
      </trkpt>
      <trkpt lat="43.66231" lon="3.7045">
        <ele>175.1</ele>
        <time>2022-05-19T09:44:23Z</time>
      </trkpt>
      <trkpt lat="43.6621" lon="3.70456">
        <ele>171.2</ele>
        <time>2022-05-19T09:44:33Z</time>
      </trkpt>
      <trkpt lat="43.66201" lon="3.70445">
        <ele>170.1</ele>
        <time>2022-05-19T09:44:43Z</time>
      </trkpt>
      <trkpt lat="43.66178" lon="3.70457">
        <ele>167.6</ele>
        <time>2022-05-19T09:44:53Z</time>
      </trkpt>
      <trkpt lat="43.6615" lon="3.7048">
        <ele>164</ele>
        <time>2022-05-19T09:45:03Z</time>
      </trkpt>
      <trkpt lat="43.66124" lon="3.70494">
        <ele>161.5</ele>
        <time>2022-05-19T09:45:13Z</time>
      </trkpt>
      <trkpt lat="43.6609" lon="3.70507">
        <ele>158.9</ele>
        <time>2022-05-19T09:45:23Z</time>
      </trkpt>
      <trkpt lat="43.66051" lon="3.70492">
        <ele>154.3</ele>
        <time>2022-05-19T09:45:43Z</time>
      </trkpt>
      <trkpt lat="43.66013" lon="3.70471">
        <ele>149.9</ele>
        <time>2022-05-19T09:45:53Z</time>
      </trkpt>
      <trkpt lat="43.65976" lon="3.70453">
        <ele>145.7</ele>
        <time>2022-05-19T09:46:03Z</time>
      </trkpt>
      <trkpt lat="43.65942" lon="3.70433">
        <ele>141.8</ele>
        <time>2022-05-19T09:46:13Z</time>
      </trkpt>
      <trkpt lat="43.65921" lon="3.70412">
        <ele>139.8</ele>
        <time>2022-05-19T09:46:23Z</time>
      </trkpt>
      <trkpt lat="43.65891" lon="3.70414">
        <ele>134.7</ele>
        <time>2022-05-19T09:46:33Z</time>
      </trkpt>
      <trkpt lat="43.65848" lon="3.7042">
        <ele>130.6</ele>
        <time>2022-05-19T09:46:43Z</time>
      </trkpt>
      <trkpt lat="43.6581" lon="3.70428">
        <ele>129</ele>
        <time>2022-05-19T09:47:13Z</time>
      </trkpt>
      <trkpt lat="43.6578" lon="3.70434">
        <ele>125.8</ele>
        <time>2022-05-19T09:47:33Z</time>
      </trkpt>
      <trkpt lat="43.65743" lon="3.70443">
        <ele>120.9</ele>
        <time>2022-05-19T09:47:43Z</time>
      </trkpt>
      <trkpt lat="43.65707" lon="3.70421">
        <ele>115.7</ele>
        <time>2022-05-19T09:47:53Z</time>
      </trkpt>
      <trkpt lat="43.65669" lon="3.70406">
        <ele>112.2</ele>
        <time>2022-05-19T09:48:03Z</time>
      </trkpt>
      <trkpt lat="43.65642" lon="3.70379">
        <ele>111.2</ele>
        <time>2022-05-19T09:48:13Z</time>
      </trkpt>
      <trkpt lat="43.65622" lon="3.70334">
        <ele>110.5</ele>
        <time>2022-05-19T09:48:23Z</time>
      </trkpt>
      <trkpt lat="43.65594" lon="3.70305">
        <ele>107.2</ele>
        <time>2022-05-19T09:48:33Z</time>
      </trkpt>
      <trkpt lat="43.65593" lon="3.70366">
        <ele>105.6</ele>
        <time>2022-05-19T09:48:43Z</time>
      </trkpt>
      <trkpt lat="43.65587" lon="3.70406">
        <ele>103.4</ele>
        <time>2022-05-19T09:48:53Z</time>
      </trkpt>
      <trkpt lat="43.65559" lon="3.70442">
        <ele>102.9</ele>
        <time>2022-05-19T09:49:03Z</time>
      </trkpt>
      <trkpt lat="43.65544" lon="3.70496">
        <ele>101.7</ele>
        <time>2022-05-19T09:49:13Z</time>
      </trkpt>
      <trkpt lat="43.65522" lon="3.70534">
        <ele>102.1</ele>
        <time>2022-05-19T09:49:23Z</time>
      </trkpt>
      <trkpt lat="43.65505" lon="3.7052">
        <ele>102.8</ele>
        <time>2022-05-19T09:49:43Z</time>
      </trkpt>
      <trkpt lat="43.65502" lon="3.70502">
        <ele>102.9</ele>
        <time>2022-05-19T09:50:03Z</time>
      </trkpt>
      <trkpt lat="43.65485" lon="3.70492">
        <ele>105.1</ele>
        <time>2022-05-19T09:50:13Z</time>
      </trkpt>
      <trkpt lat="43.65472" lon="3.70479">
        <ele>106.3</ele>
        <time>2022-05-19T09:50:23Z</time>
      </trkpt>
      <trkpt lat="43.65457" lon="3.70469">
        <ele>107.6</ele>
        <time>2022-05-19T09:50:33Z</time>
      </trkpt>
      <trkpt lat="43.6544" lon="3.70451">
        <ele>108.4</ele>
        <time>2022-05-19T09:50:43Z</time>
      </trkpt>
      <trkpt lat="43.65421" lon="3.70444">
        <ele>108.9</ele>
        <time>2022-05-19T09:50:53Z</time>
      </trkpt>
      <trkpt lat="43.65402" lon="3.7044">
        <ele>110.7</ele>
        <time>2022-05-19T09:51:03Z</time>
      </trkpt>
      <trkpt lat="43.65381" lon="3.70436">
        <ele>112</ele>
        <time>2022-05-19T09:51:13Z</time>
      </trkpt>
      <trkpt lat="43.65361" lon="3.70433">
        <ele>112.6</ele>
        <time>2022-05-19T09:51:23Z</time>
      </trkpt>
      <trkpt lat="43.65342" lon="3.70428">
        <ele>113.5</ele>
        <time>2022-05-19T09:51:33Z</time>
      </trkpt>
      <trkpt lat="43.65327" lon="3.7041">
        <ele>114.6</ele>
        <time>2022-05-19T09:51:43Z</time>
      </trkpt>
      <trkpt lat="43.65313" lon="3.70379">
        <ele>115.6</ele>
        <time>2022-05-19T09:51:53Z</time>
      </trkpt>
      <trkpt lat="43.65294" lon="3.70369">
        <ele>116.4</ele>
        <time>2022-05-19T09:52:03Z</time>
      </trkpt>
      <trkpt lat="43.65272" lon="3.704">
        <ele>116</ele>
        <time>2022-05-19T09:52:13Z</time>
      </trkpt>
      <trkpt lat="43.6524" lon="3.70428">
        <ele>115</ele>
        <time>2022-05-19T09:52:23Z</time>
      </trkpt>
      <trkpt lat="43.65205" lon="3.70458">
        <ele>114.4</ele>
        <time>2022-05-19T09:52:33Z</time>
      </trkpt>
      <trkpt lat="43.6517" lon="3.70489">
        <ele>114</ele>
        <time>2022-05-19T09:52:43Z</time>
      </trkpt>
      <trkpt lat="43.65138" lon="3.70529">
        <ele>112</ele>
        <time>2022-05-19T09:52:53Z</time>
      </trkpt>
      <trkpt lat="43.65127" lon="3.7058">
        <ele>111.8</ele>
        <time>2022-05-19T09:53:03Z</time>
      </trkpt>
      <trkpt lat="43.65105" lon="3.70595">
        <ele>110.4</ele>
        <time>2022-05-19T09:53:13Z</time>
      </trkpt>
      <trkpt lat="43.65078" lon="3.70642">
        <ele>109.4</ele>
        <time>2022-05-19T09:53:33Z</time>
      </trkpt>
      <trkpt lat="43.65045" lon="3.70687">
        <ele>107.1</ele>
        <time>2022-05-19T09:53:43Z</time>
      </trkpt>
      <trkpt lat="43.65021" lon="3.70729">
        <ele>105.9</ele>
        <time>2022-05-19T09:53:53Z</time>
      </trkpt>
      <trkpt lat="43.65019" lon="3.70785">
        <ele>105.7</ele>
        <time>2022-05-19T09:54:03Z</time>
      </trkpt>
      <trkpt lat="43.65022" lon="3.70838">
        <ele>105.5</ele>
        <time>2022-05-19T09:54:13Z</time>
      </trkpt>
      <trkpt lat="43.6502" lon="3.7089">
        <ele>104</ele>
        <time>2022-05-19T09:54:23Z</time>
      </trkpt>
      <trkpt lat="43.65031" lon="3.70937">
        <ele>103.4</ele>
        <time>2022-05-19T09:54:33Z</time>
      </trkpt>
      <trkpt lat="43.65016" lon="3.70911">
        <ele>104</ele>
        <time>2022-05-19T09:54:43Z</time>
      </trkpt>
      <trkpt lat="43.64999" lon="3.7087">
        <ele>104</ele>
        <time>2022-05-19T09:54:53Z</time>
      </trkpt>
      <trkpt lat="43.64972" lon="3.70858">
        <ele>104.1</ele>
        <time>2022-05-19T09:55:03Z</time>
      </trkpt>
      <trkpt lat="43.64994" lon="3.70869">
        <ele>104.1</ele>
        <time>2022-05-19T09:55:13Z</time>
      </trkpt>
      <trkpt lat="43.65014" lon="3.70905">
        <ele>104</ele>
        <time>2022-05-19T09:55:33Z</time>
      </trkpt>
      <trkpt lat="43.65022" lon="3.7094">
        <ele>103.3</ele>
        <time>2022-05-19T09:55:43Z</time>
      </trkpt>
      <trkpt lat="43.65006" lon="3.70961">
        <ele>103.3</ele>
        <time>2022-05-19T09:55:53Z</time>
      </trkpt>
      <trkpt lat="43.64987" lon="3.70953">
        <ele>103.7</ele>
        <time>2022-05-19T09:56:03Z</time>
      </trkpt>
      <trkpt lat="43.64963" lon="3.70942">
        <ele>103.1</ele>
        <time>2022-05-19T09:56:13Z</time>
      </trkpt>
      <trkpt lat="43.64937" lon="3.70928">
        <ele>103.5</ele>
        <time>2022-05-19T09:56:23Z</time>
      </trkpt>
      <trkpt lat="43.6488" lon="3.70903">
        <ele>104.1</ele>
        <time>2022-05-19T09:56:43Z</time>
      </trkpt>
      <trkpt lat="43.64842" lon="3.70897">
        <ele>104.2</ele>
        <time>2022-05-19T09:57:03Z</time>
      </trkpt>
      <trkpt lat="43.64827" lon="3.70909">
        <ele>104.2</ele>
        <time>2022-05-19T09:57:13Z</time>
      </trkpt>
      <trkpt lat="43.64819" lon="3.70916">
        <ele>104.5</ele>
        <time>2022-05-19T09:57:33Z</time>
      </trkpt>
      <trkpt lat="43.64802" lon="3.70925">
        <ele>106.4</ele>
        <time>2022-05-19T09:58:13Z</time>
      </trkpt>
      <trkpt lat="43.64793" lon="3.70941">
        <ele>108.2</ele>
        <time>2022-05-19T09:58:33Z</time>
      </trkpt>
      <trkpt lat="43.64796" lon="3.7096">
        <ele>111.6</ele>
        <time>2022-05-19T09:58:43Z</time>
      </trkpt>
      <trkpt lat="43.64792" lon="3.7097">
        <ele>112.7</ele>
        <time>2022-05-19T09:59:03Z</time>
      </trkpt>
      <trkpt lat="43.64764" lon="3.70972">
        <ele>108</ele>
        <time>2022-05-19T09:59:53Z</time>
      </trkpt>
      <trkpt lat="43.64745" lon="3.70991">
        <ele>105.9</ele>
        <time>2022-05-19T10:00:13Z</time>
      </trkpt>
      <trkpt lat="43.64732" lon="3.71016">
        <ele>106.9</ele>
        <time>2022-05-19T10:00:23Z</time>
      </trkpt>
      <trkpt lat="43.64719" lon="3.71043">
        <ele>107.7</ele>
        <time>2022-05-19T10:00:33Z</time>
      </trkpt>
      <trkpt lat="43.6471" lon="3.71073">
        <ele>108.4</ele>
        <time>2022-05-19T10:00:43Z</time>
      </trkpt>
      <trkpt lat="43.64703" lon="3.71099">
        <ele>110</ele>
        <time>2022-05-19T10:00:53Z</time>
      </trkpt>
      <trkpt lat="43.64705" lon="3.71119">
        <ele>111.3</ele>
        <time>2022-05-19T10:01:03Z</time>
      </trkpt>
      <trkpt lat="43.64705" lon="3.71143">
        <ele>112.6</ele>
        <time>2022-05-19T10:01:13Z</time>
      </trkpt>
      <trkpt lat="43.64694" lon="3.71154">
        <ele>114.7</ele>
        <time>2022-05-19T10:01:23Z</time>
      </trkpt>
      <trkpt lat="43.64682" lon="3.71165">
        <ele>116.7</ele>
        <time>2022-05-19T10:01:33Z</time>
      </trkpt>
      <trkpt lat="43.64671" lon="3.71176">
        <ele>118.4</ele>
        <time>2022-05-19T10:01:43Z</time>
      </trkpt>
      <trkpt lat="43.64657" lon="3.7118">
        <ele>119.7</ele>
        <time>2022-05-19T10:01:53Z</time>
      </trkpt>
      <trkpt lat="43.64641" lon="3.71181">
        <ele>120.9</ele>
        <time>2022-05-19T10:02:03Z</time>
      </trkpt>
      <trkpt lat="43.64626" lon="3.71185">
        <ele>122.7</ele>
        <time>2022-05-19T10:02:13Z</time>
      </trkpt>
      <trkpt lat="43.64611" lon="3.7118">
        <ele>124</ele>
        <time>2022-05-19T10:02:23Z</time>
      </trkpt>
      <trkpt lat="43.64599" lon="3.71169">
        <ele>124.4</ele>
        <time>2022-05-19T10:02:33Z</time>
      </trkpt>
      <trkpt lat="43.64581" lon="3.71168">
        <ele>126.3</ele>
        <time>2022-05-19T10:02:43Z</time>
      </trkpt>
      <trkpt lat="43.64568" lon="3.71179">
        <ele>128.1</ele>
        <time>2022-05-19T10:02:53Z</time>
      </trkpt>
      <trkpt lat="43.64562" lon="3.71199">
        <ele>129.6</ele>
        <time>2022-05-19T10:03:03Z</time>
      </trkpt>
      <trkpt lat="43.64555" lon="3.71215">
        <ele>131.5</ele>
        <time>2022-05-19T10:03:13Z</time>
      </trkpt>
      <trkpt lat="43.64549" lon="3.71235">
        <ele>132.7</ele>
        <time>2022-05-19T10:03:23Z</time>
      </trkpt>
      <trkpt lat="43.64537" lon="3.71246">
        <ele>133</ele>
        <time>2022-05-19T10:03:33Z</time>
      </trkpt>
      <trkpt lat="43.64549" lon="3.71246">
        <ele>132.9</ele>
        <time>2022-05-19T10:05:43Z</time>
      </trkpt>
      <trkpt lat="43.64522" lon="3.71249">
        <ele>133</ele>
        <time>2022-05-19T10:06:03Z</time>
      </trkpt>
      <trkpt lat="43.64486" lon="3.71257">
        <ele>132.2</ele>
        <time>2022-05-19T10:06:23Z</time>
      </trkpt>
      <trkpt lat="43.64441" lon="3.71262">
        <ele>130.3</ele>
        <time>2022-05-19T10:06:33Z</time>
      </trkpt>
      <trkpt lat="43.64411" lon="3.7129">
        <ele>130.1</ele>
        <time>2022-05-19T10:06:43Z</time>
      </trkpt>
      <trkpt lat="43.64388" lon="3.71314">
        <ele>130</ele>
        <time>2022-05-19T10:06:53Z</time>
      </trkpt>
      <trkpt lat="43.64381" lon="3.71309">
        <ele>130.3</ele>
        <time>2022-05-19T10:07:03Z</time>
      </trkpt>
      <trkpt lat="43.64362" lon="3.71321">
        <ele>131</ele>
        <time>2022-05-19T10:07:13Z</time>
      </trkpt>
      <trkpt lat="43.64351" lon="3.71353">
        <ele>132.9</ele>
        <time>2022-05-19T10:07:23Z</time>
      </trkpt>
      <trkpt lat="43.64336" lon="3.71383">
        <ele>134.1</ele>
        <time>2022-05-19T10:07:33Z</time>
      </trkpt>
      <trkpt lat="43.64319" lon="3.7141">
        <ele>135.9</ele>
        <time>2022-05-19T10:07:43Z</time>
      </trkpt>
      <trkpt lat="43.64302" lon="3.71438">
        <ele>138</ele>
        <time>2022-05-19T10:07:53Z</time>
      </trkpt>
      <trkpt lat="43.64287" lon="3.71456">
        <ele>138.3</ele>
        <time>2022-05-19T10:08:03Z</time>
      </trkpt>
      <trkpt lat="43.64272" lon="3.71457">
        <ele>139.1</ele>
        <time>2022-05-19T10:08:13Z</time>
      </trkpt>
      <trkpt lat="43.64254" lon="3.71465">
        <ele>140.2</ele>
        <time>2022-05-19T10:08:23Z</time>
      </trkpt>
      <trkpt lat="43.64238" lon="3.7148">
        <ele>140.9</ele>
        <time>2022-05-19T10:08:33Z</time>
      </trkpt>
      <trkpt lat="43.64222" lon="3.7148">
        <ele>142.7</ele>
        <time>2022-05-19T10:08:43Z</time>
      </trkpt>
      <trkpt lat="43.64209" lon="3.7147">
        <ele>144.6</ele>
        <time>2022-05-19T10:08:53Z</time>
      </trkpt>
      <trkpt lat="43.64199" lon="3.71458">
        <ele>147.3</ele>
        <time>2022-05-19T10:09:03Z</time>
      </trkpt>
      <trkpt lat="43.64201" lon="3.71445">
        <ele>148.5</ele>
        <time>2022-05-19T10:09:13Z</time>
      </trkpt>
      <trkpt lat="43.64207" lon="3.71429">
        <ele>149.5</ele>
        <time>2022-05-19T10:09:23Z</time>
      </trkpt>
      <trkpt lat="43.64212" lon="3.71412">
        <ele>151</ele>
        <time>2022-05-19T10:09:33Z</time>
      </trkpt>
      <trkpt lat="43.64216" lon="3.71396">
        <ele>152.5</ele>
        <time>2022-05-19T10:09:43Z</time>
      </trkpt>
      <trkpt lat="43.64216" lon="3.71379">
        <ele>154</ele>
        <time>2022-05-19T10:09:53Z</time>
      </trkpt>
      <trkpt lat="43.64201" lon="3.71368">
        <ele>154.9</ele>
        <time>2022-05-19T10:10:03Z</time>
      </trkpt>
      <trkpt lat="43.64187" lon="3.71377">
        <ele>153.9</ele>
        <time>2022-05-19T10:10:13Z</time>
      </trkpt>
      <trkpt lat="43.64163" lon="3.71407">
        <ele>153.3</ele>
        <time>2022-05-19T10:12:03Z</time>
      </trkpt>
      <trkpt lat="43.64157" lon="3.71427">
        <ele>153.8</ele>
        <time>2022-05-19T10:12:23Z</time>
      </trkpt>
      <trkpt lat="43.64142" lon="3.71462">
        <ele>152.7</ele>
        <time>2022-05-19T10:12:43Z</time>
      </trkpt>
      <trkpt lat="43.64135" lon="3.71531">
        <ele>150.1</ele>
        <time>2022-05-19T10:12:53Z</time>
      </trkpt>
      <trkpt lat="43.6414" lon="3.71604">
        <ele>148.6</ele>
        <time>2022-05-19T10:13:03Z</time>
      </trkpt>
      <trkpt lat="43.64124" lon="3.71608">
        <ele>150</ele>
        <time>2022-05-19T10:13:13Z</time>
      </trkpt>
      <trkpt lat="43.64132" lon="3.71619">
        <ele>149.4</ele>
        <time>2022-05-19T10:13:23Z</time>
      </trkpt>
      <trkpt lat="43.64105" lon="3.71604">
        <ele>150.9</ele>
        <time>2022-05-19T10:13:43Z</time>
      </trkpt>
      <trkpt lat="43.64086" lon="3.71583">
        <ele>151.9</ele>
        <time>2022-05-19T10:14:03Z</time>
      </trkpt>
      <trkpt lat="43.64069" lon="3.71556">
        <ele>153</ele>
        <time>2022-05-19T10:14:13Z</time>
      </trkpt>
      <trkpt lat="43.64067" lon="3.7149">
        <ele>150.3</ele>
        <time>2022-05-19T10:14:23Z</time>
      </trkpt>
      <trkpt lat="43.64064" lon="3.71411">
        <ele>144.2</ele>
        <time>2022-05-19T10:14:33Z</time>
      </trkpt>
      <trkpt lat="43.64057" lon="3.71344">
        <ele>140</ele>
        <time>2022-05-19T10:14:43Z</time>
      </trkpt>
      <trkpt lat="43.6404" lon="3.7128">
        <ele>137.5</ele>
        <time>2022-05-19T10:14:53Z</time>
      </trkpt>
      <trkpt lat="43.64048" lon="3.71212">
        <ele>133</ele>
        <time>2022-05-19T10:15:03Z</time>
      </trkpt>
      <trkpt lat="43.64044" lon="3.71176">
        <ele>129.8</ele>
        <time>2022-05-19T10:15:13Z</time>
      </trkpt>
      <trkpt lat="43.64018" lon="3.71177">
        <ele>130.4</ele>
        <time>2022-05-19T10:15:23Z</time>
      </trkpt>
      <trkpt lat="43.63994" lon="3.71156">
        <ele>131.8</ele>
        <time>2022-05-19T10:15:33Z</time>
      </trkpt>
      <trkpt lat="43.63969" lon="3.71158">
        <ele>133.5</ele>
        <time>2022-05-19T10:15:43Z</time>
      </trkpt>
      <trkpt lat="43.63952" lon="3.71152">
        <ele>135</ele>
        <time>2022-05-19T10:15:53Z</time>
      </trkpt>
      <trkpt lat="43.63937" lon="3.71149">
        <ele>136.4</ele>
        <time>2022-05-19T10:16:03Z</time>
      </trkpt>
      <trkpt lat="43.63929" lon="3.71127">
        <ele>138.5</ele>
        <time>2022-05-19T10:16:13Z</time>
      </trkpt>
      <trkpt lat="43.63923" lon="3.71112">
        <ele>140.1</ele>
        <time>2022-05-19T10:16:23Z</time>
      </trkpt>
      <trkpt lat="43.63911" lon="3.71103">
        <ele>140.5</ele>
        <time>2022-05-19T10:16:33Z</time>
      </trkpt>
      <trkpt lat="43.63896" lon="3.71119">
        <ele>141.6</ele>
        <time>2022-05-19T10:16:43Z</time>
      </trkpt>
      <trkpt lat="43.63889" lon="3.71139">
        <ele>143</ele>
        <time>2022-05-19T10:16:53Z</time>
      </trkpt>
      <trkpt lat="43.63884" lon="3.71157">
        <ele>144.8</ele>
        <time>2022-05-19T10:17:03Z</time>
      </trkpt>
      <trkpt lat="43.63876" lon="3.71174">
        <ele>146.6</ele>
        <time>2022-05-19T10:17:13Z</time>
      </trkpt>
      <trkpt lat="43.63864" lon="3.71188">
        <ele>148.4</ele>
        <time>2022-05-19T10:17:23Z</time>
      </trkpt>
      <trkpt lat="43.63852" lon="3.71198">
        <ele>149.7</ele>
        <time>2022-05-19T10:17:33Z</time>
      </trkpt>
      <trkpt lat="43.63835" lon="3.71204">
        <ele>150.9</ele>
        <time>2022-05-19T10:17:43Z</time>
      </trkpt>
      <trkpt lat="43.63816" lon="3.71214">
        <ele>151</ele>
        <time>2022-05-19T10:17:53Z</time>
      </trkpt>
      <trkpt lat="43.63792" lon="3.71235">
        <ele>150</ele>
        <time>2022-05-19T10:18:03Z</time>
      </trkpt>
      <trkpt lat="43.63762" lon="3.71289">
        <ele>148.4</ele>
        <time>2022-05-19T10:18:13Z</time>
      </trkpt>
      <trkpt lat="43.63736" lon="3.71339">
        <ele>147.8</ele>
        <time>2022-05-19T10:18:23Z</time>
      </trkpt>
      <trkpt lat="43.63707" lon="3.71379">
        <ele>146.6</ele>
        <time>2022-05-19T10:18:33Z</time>
      </trkpt>
      <trkpt lat="43.63677" lon="3.71425">
        <ele>145.9</ele>
        <time>2022-05-19T10:18:43Z</time>
      </trkpt>
      <trkpt lat="43.6365" lon="3.7147">
        <ele>146.6</ele>
        <time>2022-05-19T10:18:53Z</time>
      </trkpt>
      <trkpt lat="43.63626" lon="3.71508">
        <ele>148.5</ele>
        <time>2022-05-19T10:19:03Z</time>
      </trkpt>
      <trkpt lat="43.63604" lon="3.71543">
        <ele>149.5</ele>
        <time>2022-05-19T10:19:13Z</time>
      </trkpt>
      <trkpt lat="43.63583" lon="3.71577">
        <ele>150.8</ele>
        <time>2022-05-19T10:19:23Z</time>
      </trkpt>
      <trkpt lat="43.63569" lon="3.7162">
        <ele>150.8</ele>
        <time>2022-05-19T10:19:33Z</time>
      </trkpt>
      <trkpt lat="43.63554" lon="3.71671">
        <ele>150.9</ele>
        <time>2022-05-19T10:19:43Z</time>
      </trkpt>
      <trkpt lat="43.63545" lon="3.71715">
        <ele>149.9</ele>
        <time>2022-05-19T10:19:53Z</time>
      </trkpt>
      <trkpt lat="43.6358" lon="3.71747">
        <ele>147.5</ele>
        <time>2022-05-19T10:20:03Z</time>
      </trkpt>
      <trkpt lat="43.6364" lon="3.7178">
        <ele>144</ele>
        <time>2022-05-19T10:20:13Z</time>
      </trkpt>
      <trkpt lat="43.63644" lon="3.71824">
        <ele>145.7</ele>
        <time>2022-05-19T10:20:23Z</time>
      </trkpt>
      <trkpt lat="43.63642" lon="3.71862">
        <ele>148.2</ele>
        <time>2022-05-19T10:20:33Z</time>
      </trkpt>
      <trkpt lat="43.63654" lon="3.71897">
        <ele>149.7</ele>
        <time>2022-05-19T10:20:43Z</time>
      </trkpt>
      <trkpt lat="43.63648" lon="3.7193">
        <ele>151.2</ele>
        <time>2022-05-19T10:20:53Z</time>
      </trkpt>
      <trkpt lat="43.63648" lon="3.7196">
        <ele>152.2</ele>
        <time>2022-05-19T10:21:03Z</time>
      </trkpt>
      <trkpt lat="43.6364" lon="3.71991">
        <ele>153.6</ele>
        <time>2022-05-19T10:21:13Z</time>
      </trkpt>
      <trkpt lat="43.63638" lon="3.72021">
        <ele>154.8</ele>
        <time>2022-05-19T10:21:23Z</time>
      </trkpt>
      <trkpt lat="43.6363" lon="3.72046">
        <ele>156.1</ele>
        <time>2022-05-19T10:21:33Z</time>
      </trkpt>
      <trkpt lat="43.63614" lon="3.72068">
        <ele>157.4</ele>
        <time>2022-05-19T10:21:43Z</time>
      </trkpt>
      <trkpt lat="43.63598" lon="3.72081">
        <ele>158.3</ele>
        <time>2022-05-19T10:21:53Z</time>
      </trkpt>
      <trkpt lat="43.6359" lon="3.72106">
        <ele>159.6</ele>
        <time>2022-05-19T10:22:03Z</time>
      </trkpt>
      <trkpt lat="43.6358" lon="3.72133">
        <ele>160</ele>
        <time>2022-05-19T10:22:13Z</time>
      </trkpt>
      <trkpt lat="43.63583" lon="3.72165">
        <ele>160.9</ele>
        <time>2022-05-19T10:22:23Z</time>
      </trkpt>
      <trkpt lat="43.63593" lon="3.72201">
        <ele>161.9</ele>
        <time>2022-05-19T10:22:43Z</time>
      </trkpt>
      <trkpt lat="43.63602" lon="3.72242">
        <ele>163.5</ele>
        <time>2022-05-19T10:23:03Z</time>
      </trkpt>
      <trkpt lat="43.63612" lon="3.72277">
        <ele>164.9</ele>
        <time>2022-05-19T10:23:13Z</time>
      </trkpt>
      <trkpt lat="43.6362" lon="3.72319">
        <ele>166</ele>
        <time>2022-05-19T10:23:23Z</time>
      </trkpt>
      <trkpt lat="43.63629" lon="3.72359">
        <ele>166</ele>
        <time>2022-05-19T10:23:33Z</time>
      </trkpt>
      <trkpt lat="43.63638" lon="3.72405">
        <ele>166.6</ele>
        <time>2022-05-19T10:23:43Z</time>
      </trkpt>
      <trkpt lat="43.63649" lon="3.72452">
        <ele>168</ele>
        <time>2022-05-19T10:23:53Z</time>
      </trkpt>
      <trkpt lat="43.63664" lon="3.72509">
        <ele>166.9</ele>
        <time>2022-05-19T10:24:03Z</time>
      </trkpt>
      <trkpt lat="43.63668" lon="3.7258">
        <ele>165.9</ele>
        <time>2022-05-19T10:24:13Z</time>
      </trkpt>
      <trkpt lat="43.6367" lon="3.72626">
        <ele>165.7</ele>
        <time>2022-05-19T10:24:23Z</time>
      </trkpt>
      <trkpt lat="43.63672" lon="3.72675">
        <ele>165.4</ele>
        <time>2022-05-19T10:24:33Z</time>
      </trkpt>
      <trkpt lat="43.63674" lon="3.72733">
        <ele>164.5</ele>
        <time>2022-05-19T10:24:43Z</time>
      </trkpt>
      <trkpt lat="43.63665" lon="3.72809">
        <ele>164.9</ele>
        <time>2022-05-19T10:24:53Z</time>
      </trkpt>
      <trkpt lat="43.63659" lon="3.72872">
        <ele>164.6</ele>
        <time>2022-05-19T10:25:03Z</time>
      </trkpt>
      <trkpt lat="43.63652" lon="3.72928">
        <ele>164.9</ele>
        <time>2022-05-19T10:25:13Z</time>
      </trkpt>
      <trkpt lat="43.63648" lon="3.72977">
        <ele>165.4</ele>
        <time>2022-05-19T10:25:23Z</time>
      </trkpt>
      <trkpt lat="43.63647" lon="3.73024">
        <ele>165.8</ele>
        <time>2022-05-19T10:25:33Z</time>
      </trkpt>
      <trkpt lat="43.63642" lon="3.73077">
        <ele>166.8</ele>
        <time>2022-05-19T10:25:43Z</time>
      </trkpt>
      <trkpt lat="43.63635" lon="3.73113">
        <ele>168.3</ele>
        <time>2022-05-19T10:25:53Z</time>
      </trkpt>
      <trkpt lat="43.63634" lon="3.73152">
        <ele>168.7</ele>
        <time>2022-05-19T10:26:03Z</time>
      </trkpt>
      <trkpt lat="43.63632" lon="3.73224">
        <ele>165.2</ele>
        <time>2022-05-19T10:26:13Z</time>
      </trkpt>
      <trkpt lat="43.63631" lon="3.73274">
        <ele>169</ele>
        <time>2022-05-19T10:26:23Z</time>
      </trkpt>
      <trkpt lat="43.63638" lon="3.73345">
        <ele>165.5</ele>
        <time>2022-05-19T10:26:33Z</time>
      </trkpt>
      <trkpt lat="43.63648" lon="3.73393">
        <ele>168.8</ele>
        <time>2022-05-19T10:26:43Z</time>
      </trkpt>
      <trkpt lat="43.63649" lon="3.73447">
        <ele>170</ele>
        <time>2022-05-19T10:26:53Z</time>
      </trkpt>
      <trkpt lat="43.63655" lon="3.73492">
        <ele>171.4</ele>
        <time>2022-05-19T10:27:03Z</time>
      </trkpt>
      <trkpt lat="43.6366" lon="3.73543">
        <ele>170.9</ele>
        <time>2022-05-19T10:27:13Z</time>
      </trkpt>
      <trkpt lat="43.63666" lon="3.73603">
        <ele>170.6</ele>
        <time>2022-05-19T10:27:23Z</time>
      </trkpt>
      <trkpt lat="43.63677" lon="3.73647">
        <ele>172</ele>
        <time>2022-05-19T10:27:33Z</time>
      </trkpt>
      <trkpt lat="43.63687" lon="3.73709">
        <ele>168.2</ele>
        <time>2022-05-19T10:27:43Z</time>
      </trkpt>
      <trkpt lat="43.63695" lon="3.73771">
        <ele>166.1</ele>
        <time>2022-05-19T10:27:53Z</time>
      </trkpt>
      <trkpt lat="43.63704" lon="3.73836">
        <ele>163.7</ele>
        <time>2022-05-19T10:28:03Z</time>
      </trkpt>
      <trkpt lat="43.63706" lon="3.73902">
        <ele>164.1</ele>
        <time>2022-05-19T10:28:13Z</time>
      </trkpt>
      <trkpt lat="43.6371" lon="3.73964">
        <ele>162.7</ele>
        <time>2022-05-19T10:28:23Z</time>
      </trkpt>
      <trkpt lat="43.63713" lon="3.74029">
        <ele>163.6</ele>
        <time>2022-05-19T10:28:33Z</time>
      </trkpt>
      <trkpt lat="43.63715" lon="3.74106">
        <ele>159.4</ele>
        <time>2022-05-19T10:28:43Z</time>
      </trkpt>
      <trkpt lat="43.6371" lon="3.74148">
        <ele>163.5</ele>
        <time>2022-05-19T10:28:53Z</time>
      </trkpt>
      <trkpt lat="43.63717" lon="3.74189">
        <ele>162.4</ele>
        <time>2022-05-19T10:29:03Z</time>
      </trkpt>
      <trkpt lat="43.6373" lon="3.74238">
        <ele>164.1</ele>
        <time>2022-05-19T10:29:13Z</time>
      </trkpt>
      <trkpt lat="43.63742" lon="3.74273">
        <ele>164.3</ele>
        <time>2022-05-19T10:29:23Z</time>
      </trkpt>
      <trkpt lat="43.63749" lon="3.74346">
        <ele>162.6</ele>
        <time>2022-05-19T10:29:33Z</time>
      </trkpt>
      <trkpt lat="43.63756" lon="3.74376">
        <ele>164.4</ele>
        <time>2022-05-19T10:29:43Z</time>
      </trkpt>
      <trkpt lat="43.63786" lon="3.74394">
        <ele>161.6</ele>
        <time>2022-05-19T10:29:53Z</time>
      </trkpt>
      <trkpt lat="43.6385" lon="3.74392">
        <ele>157.8</ele>
        <time>2022-05-19T10:30:03Z</time>
      </trkpt>
      <trkpt lat="43.63899" lon="3.74366">
        <ele>155.9</ele>
        <time>2022-05-19T10:30:13Z</time>
      </trkpt>
      <trkpt lat="43.63907" lon="3.74425">
        <ele>155.2</ele>
        <time>2022-05-19T10:30:23Z</time>
      </trkpt>
      <trkpt lat="43.6391" lon="3.745">
        <ele>154.2</ele>
        <time>2022-05-19T10:30:33Z</time>
      </trkpt>
      <trkpt lat="43.63927" lon="3.74578">
        <ele>153.8</ele>
        <time>2022-05-19T10:30:43Z</time>
      </trkpt>
      <trkpt lat="43.63938" lon="3.74643">
        <ele>152.8</ele>
        <time>2022-05-19T10:30:53Z</time>
      </trkpt>
      <trkpt lat="43.63945" lon="3.74706">
        <ele>153.4</ele>
        <time>2022-05-19T10:31:03Z</time>
      </trkpt>
      <trkpt lat="43.63954" lon="3.74755">
        <ele>153.1</ele>
        <time>2022-05-19T10:31:13Z</time>
      </trkpt>
      <trkpt lat="43.63959" lon="3.748">
        <ele>153.8</ele>
        <time>2022-05-19T10:31:23Z</time>
      </trkpt>
      <trkpt lat="43.63963" lon="3.74821">
        <ele>153.8</ele>
        <time>2022-05-19T10:31:33Z</time>
      </trkpt>
      <trkpt lat="43.63968" lon="3.74864">
        <ele>153.5</ele>
        <time>2022-05-19T10:31:53Z</time>
      </trkpt>
      <trkpt lat="43.63974" lon="3.74904">
        <ele>153.8</ele>
        <time>2022-05-19T10:32:03Z</time>
      </trkpt>
      <trkpt lat="43.64006" lon="3.74948">
        <ele>151.7</ele>
        <time>2022-05-19T10:32:13Z</time>
      </trkpt>
      <trkpt lat="43.64034" lon="3.74991">
        <ele>151.2</ele>
        <time>2022-05-19T10:32:23Z</time>
      </trkpt>
      <trkpt lat="43.64079" lon="3.75042">
        <ele>147.5</ele>
        <time>2022-05-19T10:32:33Z</time>
      </trkpt>
      <trkpt lat="43.64115" lon="3.75114">
        <ele>144.8</ele>
        <time>2022-05-19T10:32:43Z</time>
      </trkpt>
      <trkpt lat="43.64144" lon="3.75179">
        <ele>143.8</ele>
        <time>2022-05-19T10:32:53Z</time>
      </trkpt>
      <trkpt lat="43.64182" lon="3.75244">
        <ele>141.8</ele>
        <time>2022-05-19T10:33:03Z</time>
      </trkpt>
      <trkpt lat="43.64216" lon="3.75309">
        <ele>139.4</ele>
        <time>2022-05-19T10:33:13Z</time>
      </trkpt>
      <trkpt lat="43.64238" lon="3.75382">
        <ele>138.4</ele>
        <time>2022-05-19T10:33:23Z</time>
      </trkpt>
      <trkpt lat="43.64251" lon="3.75454">
        <ele>137.1</ele>
        <time>2022-05-19T10:33:33Z</time>
      </trkpt>
      <trkpt lat="43.64268" lon="3.7552">
        <ele>137.4</ele>
        <time>2022-05-19T10:33:43Z</time>
      </trkpt>
      <trkpt lat="43.6429" lon="3.75585">
        <ele>136.4</ele>
        <time>2022-05-19T10:33:53Z</time>
      </trkpt>
      <trkpt lat="43.64307" lon="3.75636">
        <ele>135.2</ele>
        <time>2022-05-19T10:34:03Z</time>
      </trkpt>
      <trkpt lat="43.64323" lon="3.7569">
        <ele>135.6</ele>
        <time>2022-05-19T10:34:13Z</time>
      </trkpt>
      <trkpt lat="43.64335" lon="3.75733">
        <ele>135.1</ele>
        <time>2022-05-19T10:34:23Z</time>
      </trkpt>
      <trkpt lat="43.64339" lon="3.75767">
        <ele>135.4</ele>
        <time>2022-05-19T10:34:33Z</time>
      </trkpt>
      <trkpt lat="43.6433" lon="3.75768">
        <ele>134.9</ele>
        <time>2022-05-19T10:34:43Z</time>
      </trkpt>
      <trkpt lat="43.64325" lon="3.75781">
        <ele>134.8</ele>
        <time>2022-05-19T10:34:53Z</time>
      </trkpt>
      <trkpt lat="43.64331" lon="3.75812">
        <ele>135.9</ele>
        <time>2022-05-19T10:35:03Z</time>
      </trkpt>
      <trkpt lat="43.64341" lon="3.75863">
        <ele>136.6</ele>
        <time>2022-05-19T10:35:13Z</time>
      </trkpt>
      <trkpt lat="43.64352" lon="3.75915">
        <ele>137.3</ele>
        <time>2022-05-19T10:35:23Z</time>
      </trkpt>
      <trkpt lat="43.64365" lon="3.75968">
        <ele>138</ele>
        <time>2022-05-19T10:35:33Z</time>
      </trkpt>
      <trkpt lat="43.64375" lon="3.76021">
        <ele>139.4</ele>
        <time>2022-05-19T10:35:43Z</time>
      </trkpt>
      <trkpt lat="43.64385" lon="3.76075">
        <ele>138.5</ele>
        <time>2022-05-19T10:35:53Z</time>
      </trkpt>
      <trkpt lat="43.64398" lon="3.76131">
        <ele>138.5</ele>
        <time>2022-05-19T10:36:03Z</time>
      </trkpt>
      <trkpt lat="43.64418" lon="3.7619">
        <ele>137.2</ele>
        <time>2022-05-19T10:36:13Z</time>
      </trkpt>
      <trkpt lat="43.64433" lon="3.76262">
        <ele>135.7</ele>
        <time>2022-05-19T10:36:23Z</time>
      </trkpt>
      <trkpt lat="43.64451" lon="3.76333">
        <ele>135.2</ele>
        <time>2022-05-19T10:36:33Z</time>
      </trkpt>
      <trkpt lat="43.64469" lon="3.76408">
        <ele>133.9</ele>
        <time>2022-05-19T10:36:43Z</time>
      </trkpt>
      <trkpt lat="43.64479" lon="3.76481">
        <ele>133.7</ele>
        <time>2022-05-19T10:36:53Z</time>
      </trkpt>
      <trkpt lat="43.64484" lon="3.76546">
        <ele>133.2</ele>
        <time>2022-05-19T10:37:03Z</time>
      </trkpt>
      <trkpt lat="43.64496" lon="3.76608">
        <ele>133.8</ele>
        <time>2022-05-19T10:37:13Z</time>
      </trkpt>
      <trkpt lat="43.64519" lon="3.76658">
        <ele>135.2</ele>
        <time>2022-05-19T10:37:23Z</time>
      </trkpt>
      <trkpt lat="43.64547" lon="3.76695">
        <ele>136</ele>
        <time>2022-05-19T10:37:33Z</time>
      </trkpt>
      <trkpt lat="43.64576" lon="3.76751">
        <ele>134.5</ele>
        <time>2022-05-19T10:37:43Z</time>
      </trkpt>
      <trkpt lat="43.64626" lon="3.76797">
        <ele>132.3</ele>
        <time>2022-05-19T10:37:53Z</time>
      </trkpt>
      <trkpt lat="43.64656" lon="3.76845">
        <ele>133.2</ele>
        <time>2022-05-19T10:38:03Z</time>
      </trkpt>
      <trkpt lat="43.64655" lon="3.7691">
        <ele>132.8</ele>
        <time>2022-05-19T10:38:13Z</time>
      </trkpt>
      <trkpt lat="43.64655" lon="3.76975">
        <ele>132.7</ele>
        <time>2022-05-19T10:38:23Z</time>
      </trkpt>
      <trkpt lat="43.64657" lon="3.77043">
        <ele>133.3</ele>
        <time>2022-05-19T10:38:33Z</time>
      </trkpt>
      <trkpt lat="43.64661" lon="3.77091">
        <ele>134.4</ele>
        <time>2022-05-19T10:38:43Z</time>
      </trkpt>
      <trkpt lat="43.64648" lon="3.77158">
        <ele>131.4</ele>
        <time>2022-05-19T10:38:53Z</time>
      </trkpt>
      <trkpt lat="43.64668" lon="3.77258">
        <ele>124.2</ele>
        <time>2022-05-19T10:39:03Z</time>
      </trkpt>
      <trkpt lat="43.64692" lon="3.77369">
        <ele>116.3</ele>
        <time>2022-05-19T10:39:13Z</time>
      </trkpt>
      <trkpt lat="43.6469" lon="3.77439">
        <ele>111.6</ele>
        <time>2022-05-19T10:39:23Z</time>
      </trkpt>
      <trkpt lat="43.64701" lon="3.77497">
        <ele>108.1</ele>
        <time>2022-05-19T10:39:33Z</time>
      </trkpt>
      <trkpt lat="43.64706" lon="3.77548">
        <ele>106</ele>
        <time>2022-05-19T10:39:43Z</time>
      </trkpt>
      <trkpt lat="43.64722" lon="3.77593">
        <ele>104.7</ele>
        <time>2022-05-19T10:39:53Z</time>
      </trkpt>
      <trkpt lat="43.64743" lon="3.77643">
        <ele>104.3</ele>
        <time>2022-05-19T10:40:03Z</time>
      </trkpt>
      <trkpt lat="43.64769" lon="3.77684">
        <ele>104.9</ele>
        <time>2022-05-19T10:40:13Z</time>
      </trkpt>
      <trkpt lat="43.648" lon="3.77709">
        <ele>106</ele>
        <time>2022-05-19T10:40:23Z</time>
      </trkpt>
      <trkpt lat="43.64821" lon="3.77731">
        <ele>106.3</ele>
        <time>2022-05-19T10:40:33Z</time>
      </trkpt>
      <trkpt lat="43.64826" lon="3.77755">
        <ele>109.1</ele>
        <time>2022-05-19T10:40:43Z</time>
      </trkpt>
      <trkpt lat="43.64837" lon="3.7778">
        <ele>112.4</ele>
        <time>2022-05-19T10:40:53Z</time>
      </trkpt>
      <trkpt lat="43.64845" lon="3.77805">
        <ele>115.5</ele>
        <time>2022-05-19T10:41:03Z</time>
      </trkpt>
      <trkpt lat="43.64861" lon="3.7787">
        <ele>104.4</ele>
        <time>2022-05-19T10:41:13Z</time>
      </trkpt>
      <trkpt lat="43.6489" lon="3.77955">
        <ele>98.1</ele>
        <time>2022-05-19T10:41:23Z</time>
      </trkpt>
      <trkpt lat="43.64916" lon="3.78055">
        <ele>95.2</ele>
        <time>2022-05-19T10:41:33Z</time>
      </trkpt>
      <trkpt lat="43.65004" lon="3.78271">
        <ele>86.6</ele>
        <time>2022-05-19T10:41:35.473Z</time>
      </trkpt>
      <trkpt lat="43.65117" lon="3.78468">
        <ele>74.9</ele>
        <time>2022-05-19T10:41:37.992Z</time>
      </trkpt>
      <trkpt lat="43.65135" lon="3.78754">
        <ele>67.3</ele>
        <time>2022-05-19T10:41:40.857Z</time>
      </trkpt>
      <trkpt lat="43.65137" lon="3.78818">
        <ele>62.3</ele>
        <time>2022-05-19T10:41:41.501Z</time>
      </trkpt>
      <trkpt lat="43.65052" lon="3.7891">
        <ele>60.3</ele>
        <time>2022-05-19T10:41:43Z</time>
      </trkpt>
    </trkseg>
  </trk>
</gpx>